<?xml version="1.0" encoding="UTF-8" standalone="no" ?>
<gpx xmlns="http://www.topografix.com/GPX/1/1" xmlns:xsi="http://www.w3.org/2001/XMLSchema-instance" xsi:schemaLocation="http://www.topografix.com/GPX/1/1 http://www.topografix.com/GPX/1/1/gpx.xsd" version="1.1" creator="VisuGPX - https://www.visugpx.com">
  <metadata>
    <name>Courmettes</name>
    <desc><![CDATA[Valbonne - Courmettes (alti 620m)]]></desc>
  </metadata>
  <trk>
    <name><![CDATA[Track 001]]></name>
    <trkseg>
      <trkpt lat="43.64064" lon="7.00914">
        <ele>220.3</ele>
        <time>2009-04-06T10:08:28Z</time>
      </trkpt>
      <trkpt lat="43.64046" lon="7.00964">
        <ele>193.4</ele>
        <time>2009-04-06T10:08:46Z</time>
      </trkpt>
      <trkpt lat="43.64027" lon="7.00989">
        <ele>190.5</ele>
        <time>2009-04-06T10:08:51Z</time>
      </trkpt>
      <trkpt lat="43.64004" lon="7.01015">
        <ele>189.5</ele>
        <time>2009-04-06T10:08:56Z</time>
      </trkpt>
      <trkpt lat="43.63981" lon="7.01045">
        <ele>189</ele>
        <time>2009-04-06T10:09:01Z</time>
      </trkpt>
      <trkpt lat="43.6396" lon="7.01074">
        <ele>189.5</ele>
        <time>2009-04-06T10:09:06Z</time>
      </trkpt>
      <trkpt lat="43.63939" lon="7.01103">
        <ele>191</ele>
        <time>2009-04-06T10:09:11Z</time>
      </trkpt>
      <trkpt lat="43.63919" lon="7.01131">
        <ele>193.4</ele>
        <time>2009-04-06T10:09:17Z</time>
      </trkpt>
      <trkpt lat="43.639" lon="7.01158">
        <ele>192.9</ele>
        <time>2009-04-06T10:09:24Z</time>
      </trkpt>
      <trkpt lat="43.63881" lon="7.01188">
        <ele>192.9</ele>
        <time>2009-04-06T10:09:33Z</time>
      </trkpt>
      <trkpt lat="43.63865" lon="7.01218">
        <ele>193.8</ele>
        <time>2009-04-06T10:09:42Z</time>
      </trkpt>
      <trkpt lat="43.63864" lon="7.01259">
        <ele>191.4</ele>
        <time>2009-04-06T10:09:54Z</time>
      </trkpt>
      <trkpt lat="43.63879" lon="7.01297">
        <ele>189</ele>
        <time>2009-04-06T10:10:09Z</time>
      </trkpt>
      <trkpt lat="43.63891" lon="7.0134">
        <ele>191.9</ele>
        <time>2009-04-06T10:10:21Z</time>
      </trkpt>
      <trkpt lat="43.63896" lon="7.01378">
        <ele>194.3</ele>
        <time>2009-04-06T10:10:31Z</time>
      </trkpt>
      <trkpt lat="43.63907" lon="7.01415">
        <ele>195.8</ele>
        <time>2009-04-06T10:10:41Z</time>
      </trkpt>
      <trkpt lat="43.63923" lon="7.01446">
        <ele>194.3</ele>
        <time>2009-04-06T10:10:49Z</time>
      </trkpt>
      <trkpt lat="43.6394" lon="7.0148">
        <ele>197.2</ele>
        <time>2009-04-06T10:10:57Z</time>
      </trkpt>
      <trkpt lat="43.63956" lon="7.01513">
        <ele>197.7</ele>
        <time>2009-04-06T10:11:05Z</time>
      </trkpt>
      <trkpt lat="43.6397" lon="7.01549">
        <ele>201.1</ele>
        <time>2009-04-06T10:11:13Z</time>
      </trkpt>
      <trkpt lat="43.6398" lon="7.01587">
        <ele>203</ele>
        <time>2009-04-06T10:11:21Z</time>
      </trkpt>
      <trkpt lat="43.63989" lon="7.01625">
        <ele>203.9</ele>
        <time>2009-04-06T10:11:30Z</time>
      </trkpt>
      <trkpt lat="43.63998" lon="7.0166">
        <ele>205.9</ele>
        <time>2009-04-06T10:11:38Z</time>
      </trkpt>
      <trkpt lat="43.64008" lon="7.017">
        <ele>209.7</ele>
        <time>2009-04-06T10:11:47Z</time>
      </trkpt>
      <trkpt lat="43.64019" lon="7.01738">
        <ele>210.7</ele>
        <time>2009-04-06T10:11:56Z</time>
      </trkpt>
      <trkpt lat="43.6404" lon="7.01765">
        <ele>211.1</ele>
        <time>2009-04-06T10:12:06Z</time>
      </trkpt>
      <trkpt lat="43.64058" lon="7.01796">
        <ele>209.7</ele>
        <time>2009-04-06T10:12:15Z</time>
      </trkpt>
      <trkpt lat="43.64066" lon="7.0184">
        <ele>211.6</ele>
        <time>2009-04-06T10:12:22Z</time>
      </trkpt>
      <trkpt lat="43.64071" lon="7.01878">
        <ele>212.6</ele>
        <time>2009-04-06T10:12:27Z</time>
      </trkpt>
      <trkpt lat="43.64081" lon="7.01915">
        <ele>213.6</ele>
        <time>2009-04-06T10:12:33Z</time>
      </trkpt>
      <trkpt lat="43.641" lon="7.01945">
        <ele>214</ele>
        <time>2009-04-06T10:12:40Z</time>
      </trkpt>
      <trkpt lat="43.64124" lon="7.01973">
        <ele>212.6</ele>
        <time>2009-04-06T10:12:47Z</time>
      </trkpt>
      <trkpt lat="43.64152" lon="7.01976">
        <ele>214</ele>
        <time>2009-04-06T10:12:53Z</time>
      </trkpt>
      <trkpt lat="43.64183" lon="7.01976">
        <ele>215.5</ele>
        <time>2009-04-06T10:13:00Z</time>
      </trkpt>
      <trkpt lat="43.64202" lon="7.01977">
        <ele>217.4</ele>
        <time>2009-04-06T10:13:12Z</time>
      </trkpt>
      <trkpt lat="43.64174" lon="7.01971">
        <ele>216</ele>
        <time>2009-04-06T10:13:22Z</time>
      </trkpt>
      <trkpt lat="43.64145" lon="7.01972">
        <ele>215.5</ele>
        <time>2009-04-06T10:13:28Z</time>
      </trkpt>
      <trkpt lat="43.64118" lon="7.01966">
        <ele>216</ele>
        <time>2009-04-06T10:13:33Z</time>
      </trkpt>
      <trkpt lat="43.64099" lon="7.01938">
        <ele>213.6</ele>
        <time>2009-04-06T10:13:38Z</time>
      </trkpt>
      <trkpt lat="43.64082" lon="7.01907">
        <ele>212.1</ele>
        <time>2009-04-06T10:13:43Z</time>
      </trkpt>
      <trkpt lat="43.64073" lon="7.01868">
        <ele>211.1</ele>
        <time>2009-04-06T10:13:48Z</time>
      </trkpt>
      <trkpt lat="43.64067" lon="7.01826">
        <ele>213.6</ele>
        <time>2009-04-06T10:13:54Z</time>
      </trkpt>
      <trkpt lat="43.64058" lon="7.01784">
        <ele>216.4</ele>
        <time>2009-04-06T10:14:02Z</time>
      </trkpt>
      <trkpt lat="43.64037" lon="7.01754">
        <ele>216.4</ele>
        <time>2009-04-06T10:14:09Z</time>
      </trkpt>
      <trkpt lat="43.64019" lon="7.01723">
        <ele>214.5</ele>
        <time>2009-04-06T10:14:14Z</time>
      </trkpt>
      <trkpt lat="43.64006" lon="7.0168">
        <ele>212.6</ele>
        <time>2009-04-06T10:14:19Z</time>
      </trkpt>
      <trkpt lat="43.63995" lon="7.01637">
        <ele>211.1</ele>
        <time>2009-04-06T10:14:23Z</time>
      </trkpt>
      <trkpt lat="43.63985" lon="7.01595">
        <ele>209.7</ele>
        <time>2009-04-06T10:14:27Z</time>
      </trkpt>
      <trkpt lat="43.63971" lon="7.0154">
        <ele>207.8</ele>
        <time>2009-04-06T10:14:31Z</time>
      </trkpt>
      <trkpt lat="43.6395" lon="7.01496">
        <ele>203.9</ele>
        <time>2009-04-06T10:14:35Z</time>
      </trkpt>
      <trkpt lat="43.63929" lon="7.01453">
        <ele>202</ele>
        <time>2009-04-06T10:14:39Z</time>
      </trkpt>
      <trkpt lat="43.63914" lon="7.01422">
        <ele>199.6</ele>
        <time>2009-04-06T10:14:42Z</time>
      </trkpt>
      <trkpt lat="43.63901" lon="7.01378">
        <ele>197.2</ele>
        <time>2009-04-06T10:14:46Z</time>
      </trkpt>
      <trkpt lat="43.63894" lon="7.01328">
        <ele>194.3</ele>
        <time>2009-04-06T10:14:50Z</time>
      </trkpt>
      <trkpt lat="43.63878" lon="7.01291">
        <ele>192.4</ele>
        <time>2009-04-06T10:14:53Z</time>
      </trkpt>
      <trkpt lat="43.63866" lon="7.01251">
        <ele>191</ele>
        <time>2009-04-06T10:14:56Z</time>
      </trkpt>
      <trkpt lat="43.63876" lon="7.01206">
        <ele>189</ele>
        <time>2009-04-06T10:14:59Z</time>
      </trkpt>
      <trkpt lat="43.63898" lon="7.0117">
        <ele>187.6</ele>
        <time>2009-04-06T10:15:02Z</time>
      </trkpt>
      <trkpt lat="43.6392" lon="7.01137">
        <ele>188.1</ele>
        <time>2009-04-06T10:15:05Z</time>
      </trkpt>
      <trkpt lat="43.63941" lon="7.01106">
        <ele>187.6</ele>
        <time>2009-04-06T10:15:08Z</time>
      </trkpt>
      <trkpt lat="43.63961" lon="7.01076">
        <ele>187.6</ele>
        <time>2009-04-06T10:15:11Z</time>
      </trkpt>
      <trkpt lat="43.6398" lon="7.01046">
        <ele>187.1</ele>
        <time>2009-04-06T10:15:14Z</time>
      </trkpt>
      <trkpt lat="43.64" lon="7.01018">
        <ele>187.6</ele>
        <time>2009-04-06T10:15:17Z</time>
      </trkpt>
      <trkpt lat="43.64027" lon="7.00988">
        <ele>188.1</ele>
        <time>2009-04-06T10:15:21Z</time>
      </trkpt>
      <trkpt lat="43.64047" lon="7.0096">
        <ele>188.6</ele>
        <time>2009-04-06T10:15:25Z</time>
      </trkpt>
      <trkpt lat="43.64065" lon="7.00935">
        <ele>189</ele>
        <time>2009-04-06T10:15:32Z</time>
      </trkpt>
      <trkpt lat="43.64076" lon="7.00896">
        <ele>191</ele>
        <time>2009-04-06T10:15:43Z</time>
      </trkpt>
      <trkpt lat="43.64081" lon="7.00857">
        <ele>189.5</ele>
        <time>2009-04-06T10:15:53Z</time>
      </trkpt>
      <trkpt lat="43.64094" lon="7.00827">
        <ele>190</ele>
        <time>2009-04-06T10:16:05Z</time>
      </trkpt>
      <trkpt lat="43.64111" lon="7.00868">
        <ele>193.8</ele>
        <time>2009-04-06T10:19:21Z</time>
      </trkpt>
      <trkpt lat="43.64085" lon="7.00843">
        <ele>194.8</ele>
        <time>2009-04-06T10:19:31Z</time>
      </trkpt>
      <trkpt lat="43.64075" lon="7.0086">
        <ele>194.8</ele>
        <time>2009-04-06T10:19:40Z</time>
      </trkpt>
      <trkpt lat="43.64058" lon="7.00883">
        <ele>195.8</ele>
        <time>2009-04-06T10:19:51Z</time>
      </trkpt>
      <trkpt lat="43.64053" lon="7.00922">
        <ele>193.8</ele>
        <time>2009-04-06T10:19:57Z</time>
      </trkpt>
      <trkpt lat="43.64045" lon="7.00962">
        <ele>191.9</ele>
        <time>2009-04-06T10:20:02Z</time>
      </trkpt>
      <trkpt lat="43.64023" lon="7.0099">
        <ele>192.4</ele>
        <time>2009-04-06T10:20:07Z</time>
      </trkpt>
      <trkpt lat="43.64" lon="7.01013">
        <ele>191.4</ele>
        <time>2009-04-06T10:20:12Z</time>
      </trkpt>
      <trkpt lat="43.63978" lon="7.01041">
        <ele>190.5</ele>
        <time>2009-04-06T10:20:18Z</time>
      </trkpt>
      <trkpt lat="43.63957" lon="7.01071">
        <ele>191</ele>
        <time>2009-04-06T10:20:24Z</time>
      </trkpt>
      <trkpt lat="43.63936" lon="7.01101">
        <ele>191.4</ele>
        <time>2009-04-06T10:20:30Z</time>
      </trkpt>
      <trkpt lat="43.63915" lon="7.01133">
        <ele>191.9</ele>
        <time>2009-04-06T10:20:37Z</time>
      </trkpt>
      <trkpt lat="43.63895" lon="7.01163">
        <ele>191.9</ele>
        <time>2009-04-06T10:20:44Z</time>
      </trkpt>
      <trkpt lat="43.63875" lon="7.01197">
        <ele>193.8</ele>
        <time>2009-04-06T10:20:53Z</time>
      </trkpt>
      <trkpt lat="43.63863" lon="7.01234">
        <ele>195.8</ele>
        <time>2009-04-06T10:21:02Z</time>
      </trkpt>
      <trkpt lat="43.63869" lon="7.01278">
        <ele>192.9</ele>
        <time>2009-04-06T10:21:11Z</time>
      </trkpt>
      <trkpt lat="43.63881" lon="7.01316">
        <ele>193.4</ele>
        <time>2009-04-06T10:21:21Z</time>
      </trkpt>
      <trkpt lat="43.63893" lon="7.01355">
        <ele>197.7</ele>
        <time>2009-04-06T10:21:33Z</time>
      </trkpt>
      <trkpt lat="43.639" lon="7.01393">
        <ele>201.5</ele>
        <time>2009-04-06T10:21:43Z</time>
      </trkpt>
      <trkpt lat="43.63915" lon="7.0143">
        <ele>200.6</ele>
        <time>2009-04-06T10:21:53Z</time>
      </trkpt>
      <trkpt lat="43.63931" lon="7.01462">
        <ele>200.1</ele>
        <time>2009-04-06T10:22:02Z</time>
      </trkpt>
      <trkpt lat="43.63947" lon="7.01495">
        <ele>201.1</ele>
        <time>2009-04-06T10:22:10Z</time>
      </trkpt>
      <trkpt lat="43.63962" lon="7.01527">
        <ele>200.6</ele>
        <time>2009-04-06T10:22:18Z</time>
      </trkpt>
      <trkpt lat="43.63973" lon="7.01563">
        <ele>202</ele>
        <time>2009-04-06T10:22:26Z</time>
      </trkpt>
      <trkpt lat="43.63982" lon="7.01598">
        <ele>203.9</ele>
        <time>2009-04-06T10:22:34Z</time>
      </trkpt>
      <trkpt lat="43.63993" lon="7.01637">
        <ele>205.4</ele>
        <time>2009-04-06T10:22:43Z</time>
      </trkpt>
      <trkpt lat="43.64001" lon="7.01672">
        <ele>208.3</ele>
        <time>2009-04-06T10:22:51Z</time>
      </trkpt>
      <trkpt lat="43.64012" lon="7.01709">
        <ele>209.7</ele>
        <time>2009-04-06T10:22:59Z</time>
      </trkpt>
      <trkpt lat="43.64023" lon="7.01744">
        <ele>210.2</ele>
        <time>2009-04-06T10:23:08Z</time>
      </trkpt>
      <trkpt lat="43.64045" lon="7.01769">
        <ele>210.7</ele>
        <time>2009-04-06T10:23:17Z</time>
      </trkpt>
      <trkpt lat="43.64061" lon="7.01807">
        <ele>211.1</ele>
        <time>2009-04-06T10:23:26Z</time>
      </trkpt>
      <trkpt lat="43.64068" lon="7.01849">
        <ele>211.6</ele>
        <time>2009-04-06T10:23:32Z</time>
      </trkpt>
      <trkpt lat="43.64073" lon="7.01888">
        <ele>212.6</ele>
        <time>2009-04-06T10:23:37Z</time>
      </trkpt>
      <trkpt lat="43.64086" lon="7.01921">
        <ele>213.6</ele>
        <time>2009-04-06T10:23:43Z</time>
      </trkpt>
      <trkpt lat="43.64104" lon="7.01953">
        <ele>213.1</ele>
        <time>2009-04-06T10:23:50Z</time>
      </trkpt>
      <trkpt lat="43.64131" lon="7.01975">
        <ele>212.6</ele>
        <time>2009-04-06T10:23:57Z</time>
      </trkpt>
      <trkpt lat="43.64161" lon="7.01976">
        <ele>215</ele>
        <time>2009-04-06T10:24:04Z</time>
      </trkpt>
      <trkpt lat="43.6419" lon="7.01976">
        <ele>216.4</ele>
        <time>2009-04-06T10:24:11Z</time>
      </trkpt>
      <trkpt lat="43.64219" lon="7.01982">
        <ele>214.5</ele>
        <time>2009-04-06T10:24:17Z</time>
      </trkpt>
      <trkpt lat="43.64247" lon="7.01991">
        <ele>212.6</ele>
        <time>2009-04-06T10:24:22Z</time>
      </trkpt>
      <trkpt lat="43.64276" lon="7.01999">
        <ele>209.7</ele>
        <time>2009-04-06T10:24:26Z</time>
      </trkpt>
      <trkpt lat="43.64306" lon="7.02003">
        <ele>209.2</ele>
        <time>2009-04-06T10:24:30Z</time>
      </trkpt>
      <trkpt lat="43.64337" lon="7.02007">
        <ele>207.3</ele>
        <time>2009-04-06T10:24:34Z</time>
      </trkpt>
      <trkpt lat="43.64367" lon="7.02009">
        <ele>205.9</ele>
        <time>2009-04-06T10:24:38Z</time>
      </trkpt>
      <trkpt lat="43.64396" lon="7.02012">
        <ele>203.5</ele>
        <time>2009-04-06T10:24:42Z</time>
      </trkpt>
      <trkpt lat="43.64411" lon="7.02042">
        <ele>202.5</ele>
        <time>2009-04-06T10:24:49Z</time>
      </trkpt>
      <trkpt lat="43.6444" lon="7.02058">
        <ele>203.5</ele>
        <time>2009-04-06T10:24:55Z</time>
      </trkpt>
      <trkpt lat="43.64468" lon="7.02079">
        <ele>202</ele>
        <time>2009-04-06T10:25:00Z</time>
      </trkpt>
      <trkpt lat="43.64497" lon="7.0209">
        <ele>200.1</ele>
        <time>2009-04-06T10:25:04Z</time>
      </trkpt>
      <trkpt lat="43.64524" lon="7.02096">
        <ele>198.2</ele>
        <time>2009-04-06T10:25:07Z</time>
      </trkpt>
      <trkpt lat="43.64556" lon="7.0212">
        <ele>196.7</ele>
        <time>2009-04-06T10:25:11Z</time>
      </trkpt>
      <trkpt lat="43.64585" lon="7.0214">
        <ele>194.3</ele>
        <time>2009-04-06T10:25:14Z</time>
      </trkpt>
      <trkpt lat="43.64619" lon="7.02161">
        <ele>191.4</ele>
        <time>2009-04-06T10:25:17Z</time>
      </trkpt>
      <trkpt lat="43.64652" lon="7.02182">
        <ele>190</ele>
        <time>2009-04-06T10:25:20Z</time>
      </trkpt>
      <trkpt lat="43.64684" lon="7.02201">
        <ele>189.5</ele>
        <time>2009-04-06T10:25:23Z</time>
      </trkpt>
      <trkpt lat="43.64713" lon="7.02217">
        <ele>189</ele>
        <time>2009-04-06T10:25:26Z</time>
      </trkpt>
      <trkpt lat="43.6474" lon="7.02232">
        <ele>189.5</ele>
        <time>2009-04-06T10:25:29Z</time>
      </trkpt>
      <trkpt lat="43.64766" lon="7.02247">
        <ele>189</ele>
        <time>2009-04-06T10:25:32Z</time>
      </trkpt>
      <trkpt lat="43.6479" lon="7.02264">
        <ele>189.5</ele>
        <time>2009-04-06T10:25:35Z</time>
      </trkpt>
      <trkpt lat="43.6482" lon="7.0229">
        <ele>189</ele>
        <time>2009-04-06T10:25:39Z</time>
      </trkpt>
      <trkpt lat="43.64851" lon="7.02315">
        <ele>187.6</ele>
        <time>2009-04-06T10:25:43Z</time>
      </trkpt>
      <trkpt lat="43.6488" lon="7.02333">
        <ele>187.1</ele>
        <time>2009-04-06T10:25:47Z</time>
      </trkpt>
      <trkpt lat="43.64911" lon="7.02349">
        <ele>188.1</ele>
        <time>2009-04-06T10:25:51Z</time>
      </trkpt>
      <trkpt lat="43.64941" lon="7.02366">
        <ele>187.1</ele>
        <time>2009-04-06T10:25:55Z</time>
      </trkpt>
      <trkpt lat="43.64964" lon="7.02386">
        <ele>186.2</ele>
        <time>2009-04-06T10:25:58Z</time>
      </trkpt>
      <trkpt lat="43.64984" lon="7.02414">
        <ele>184.2</ele>
        <time>2009-04-06T10:26:01Z</time>
      </trkpt>
      <trkpt lat="43.65002" lon="7.02447">
        <ele>182.3</ele>
        <time>2009-04-06T10:26:04Z</time>
      </trkpt>
      <trkpt lat="43.65018" lon="7.02484">
        <ele>180.4</ele>
        <time>2009-04-06T10:26:07Z</time>
      </trkpt>
      <trkpt lat="43.65036" lon="7.02514">
        <ele>178.9</ele>
        <time>2009-04-06T10:26:10Z</time>
      </trkpt>
      <trkpt lat="43.65056" lon="7.02543">
        <ele>176.5</ele>
        <time>2009-04-06T10:26:13Z</time>
      </trkpt>
      <trkpt lat="43.6507" lon="7.02588">
        <ele>175.6</ele>
        <time>2009-04-06T10:26:17Z</time>
      </trkpt>
      <trkpt lat="43.65075" lon="7.02636">
        <ele>176.1</ele>
        <time>2009-04-06T10:26:21Z</time>
      </trkpt>
      <trkpt lat="43.65083" lon="7.02683">
        <ele>174.6</ele>
        <time>2009-04-06T10:26:25Z</time>
      </trkpt>
      <trkpt lat="43.65107" lon="7.02713">
        <ele>173.7</ele>
        <time>2009-04-06T10:26:29Z</time>
      </trkpt>
      <trkpt lat="43.65137" lon="7.02728">
        <ele>174.6</ele>
        <time>2009-04-06T10:26:33Z</time>
      </trkpt>
      <trkpt lat="43.65166" lon="7.0274">
        <ele>174.6</ele>
        <time>2009-04-06T10:26:37Z</time>
      </trkpt>
      <trkpt lat="43.6519" lon="7.02761">
        <ele>175.1</ele>
        <time>2009-04-06T10:26:41Z</time>
      </trkpt>
      <trkpt lat="43.65207" lon="7.02786">
        <ele>175.1</ele>
        <time>2009-04-06T10:26:45Z</time>
      </trkpt>
      <trkpt lat="43.65225" lon="7.02826">
        <ele>175.6</ele>
        <time>2009-04-06T10:26:50Z</time>
      </trkpt>
      <trkpt lat="43.65243" lon="7.02854">
        <ele>176.1</ele>
        <time>2009-04-06T10:26:55Z</time>
      </trkpt>
      <trkpt lat="43.65271" lon="7.02866">
        <ele>175.6</ele>
        <time>2009-04-06T10:27:01Z</time>
      </trkpt>
      <trkpt lat="43.65302" lon="7.02854">
        <ele>175.1</ele>
        <time>2009-04-06T10:27:07Z</time>
      </trkpt>
      <trkpt lat="43.65328" lon="7.02838">
        <ele>174.6</ele>
        <time>2009-04-06T10:27:12Z</time>
      </trkpt>
      <trkpt lat="43.65355" lon="7.02822">
        <ele>174.1</ele>
        <time>2009-04-06T10:27:17Z</time>
      </trkpt>
      <trkpt lat="43.65379" lon="7.02806">
        <ele>173.7</ele>
        <time>2009-04-06T10:27:22Z</time>
      </trkpt>
      <trkpt lat="43.65404" lon="7.02777">
        <ele>175.1</ele>
        <time>2009-04-06T10:27:28Z</time>
      </trkpt>
      <trkpt lat="43.65421" lon="7.02744">
        <ele>173.7</ele>
        <time>2009-04-06T10:27:33Z</time>
      </trkpt>
      <trkpt lat="43.65437" lon="7.0271">
        <ele>173.2</ele>
        <time>2009-04-06T10:27:37Z</time>
      </trkpt>
      <trkpt lat="43.65454" lon="7.02675">
        <ele>171.7</ele>
        <time>2009-04-06T10:27:41Z</time>
      </trkpt>
      <trkpt lat="43.65469" lon="7.0264">
        <ele>170.3</ele>
        <time>2009-04-06T10:27:45Z</time>
      </trkpt>
      <trkpt lat="43.65485" lon="7.0261">
        <ele>173.7</ele>
        <time>2009-04-06T10:27:49Z</time>
      </trkpt>
      <trkpt lat="43.65513" lon="7.02587">
        <ele>176.5</ele>
        <time>2009-04-06T10:27:54Z</time>
      </trkpt>
      <trkpt lat="43.65543" lon="7.02599">
        <ele>177</ele>
        <time>2009-04-06T10:27:59Z</time>
      </trkpt>
      <trkpt lat="43.6557" lon="7.02619">
        <ele>175.6</ele>
        <time>2009-04-06T10:28:04Z</time>
      </trkpt>
      <trkpt lat="43.65598" lon="7.02634">
        <ele>177</ele>
        <time>2009-04-06T10:28:09Z</time>
      </trkpt>
      <trkpt lat="43.65627" lon="7.02644">
        <ele>178</ele>
        <time>2009-04-06T10:28:14Z</time>
      </trkpt>
      <trkpt lat="43.65655" lon="7.02657">
        <ele>178.9</ele>
        <time>2009-04-06T10:28:19Z</time>
      </trkpt>
      <trkpt lat="43.65684" lon="7.02669">
        <ele>181.3</ele>
        <time>2009-04-06T10:28:24Z</time>
      </trkpt>
      <trkpt lat="43.65712" lon="7.02687">
        <ele>181.3</ele>
        <time>2009-04-06T10:28:29Z</time>
      </trkpt>
      <trkpt lat="43.65738" lon="7.02705">
        <ele>181.3</ele>
        <time>2009-04-06T10:28:34Z</time>
      </trkpt>
      <trkpt lat="43.65761" lon="7.02728">
        <ele>182.8</ele>
        <time>2009-04-06T10:28:39Z</time>
      </trkpt>
      <trkpt lat="43.65784" lon="7.02756">
        <ele>183.3</ele>
        <time>2009-04-06T10:28:44Z</time>
      </trkpt>
      <trkpt lat="43.65803" lon="7.02783">
        <ele>183.7</ele>
        <time>2009-04-06T10:28:49Z</time>
      </trkpt>
      <trkpt lat="43.65823" lon="7.02816">
        <ele>182.8</ele>
        <time>2009-04-06T10:28:55Z</time>
      </trkpt>
      <trkpt lat="43.65844" lon="7.02846">
        <ele>183.3</ele>
        <time>2009-04-06T10:29:02Z</time>
      </trkpt>
      <trkpt lat="43.65864" lon="7.02874">
        <ele>184.2</ele>
        <time>2009-04-06T10:29:09Z</time>
      </trkpt>
      <trkpt lat="43.65885" lon="7.02906">
        <ele>186.6</ele>
        <time>2009-04-06T10:29:17Z</time>
      </trkpt>
      <trkpt lat="43.65906" lon="7.02935">
        <ele>188.6</ele>
        <time>2009-04-06T10:29:25Z</time>
      </trkpt>
      <trkpt lat="43.65927" lon="7.02965">
        <ele>190</ele>
        <time>2009-04-06T10:29:31Z</time>
      </trkpt>
      <trkpt lat="43.6595" lon="7.02998">
        <ele>190.5</ele>
        <time>2009-04-06T10:29:36Z</time>
      </trkpt>
      <trkpt lat="43.65975" lon="7.03025">
        <ele>190</ele>
        <time>2009-04-06T10:29:40Z</time>
      </trkpt>
      <trkpt lat="43.66005" lon="7.03049">
        <ele>188.6</ele>
        <time>2009-04-06T10:29:44Z</time>
      </trkpt>
      <trkpt lat="43.66035" lon="7.03083">
        <ele>187.1</ele>
        <time>2009-04-06T10:29:48Z</time>
      </trkpt>
      <trkpt lat="43.66053" lon="7.03115">
        <ele>184.7</ele>
        <time>2009-04-06T10:29:51Z</time>
      </trkpt>
      <trkpt lat="43.66066" lon="7.03152">
        <ele>182.8</ele>
        <time>2009-04-06T10:29:54Z</time>
      </trkpt>
      <trkpt lat="43.66075" lon="7.03193">
        <ele>181.8</ele>
        <time>2009-04-06T10:29:57Z</time>
      </trkpt>
      <trkpt lat="43.66082" lon="7.03234">
        <ele>180.9</ele>
        <time>2009-04-06T10:30:00Z</time>
      </trkpt>
      <trkpt lat="43.66089" lon="7.03273">
        <ele>180.4</ele>
        <time>2009-04-06T10:30:03Z</time>
      </trkpt>
      <trkpt lat="43.66099" lon="7.03312">
        <ele>179.4</ele>
        <time>2009-04-06T10:30:06Z</time>
      </trkpt>
      <trkpt lat="43.66108" lon="7.03352">
        <ele>178.9</ele>
        <time>2009-04-06T10:30:09Z</time>
      </trkpt>
      <trkpt lat="43.66118" lon="7.0339">
        <ele>177.5</ele>
        <time>2009-04-06T10:30:12Z</time>
      </trkpt>
      <trkpt lat="43.66127" lon="7.03428">
        <ele>176.1</ele>
        <time>2009-04-06T10:30:15Z</time>
      </trkpt>
      <trkpt lat="43.66137" lon="7.03474">
        <ele>174.6</ele>
        <time>2009-04-06T10:30:19Z</time>
      </trkpt>
      <trkpt lat="43.66144" lon="7.03518">
        <ele>173.2</ele>
        <time>2009-04-06T10:30:23Z</time>
      </trkpt>
      <trkpt lat="43.66151" lon="7.03557">
        <ele>173.7</ele>
        <time>2009-04-06T10:30:27Z</time>
      </trkpt>
      <trkpt lat="43.66157" lon="7.03596">
        <ele>174.6</ele>
        <time>2009-04-06T10:30:32Z</time>
      </trkpt>
      <trkpt lat="43.66164" lon="7.03638">
        <ele>176.1</ele>
        <time>2009-04-06T10:30:39Z</time>
      </trkpt>
      <trkpt lat="43.66174" lon="7.03674">
        <ele>175.6</ele>
        <time>2009-04-06T10:30:46Z</time>
      </trkpt>
      <trkpt lat="43.66184" lon="7.03711">
        <ele>176.5</ele>
        <time>2009-04-06T10:30:54Z</time>
      </trkpt>
      <trkpt lat="43.66192" lon="7.03748">
        <ele>178</ele>
        <time>2009-04-06T10:31:02Z</time>
      </trkpt>
      <trkpt lat="43.66209" lon="7.03778">
        <ele>176.1</ele>
        <time>2009-04-06T10:31:10Z</time>
      </trkpt>
      <trkpt lat="43.6623" lon="7.0381">
        <ele>173.7</ele>
        <time>2009-04-06T10:31:16Z</time>
      </trkpt>
      <trkpt lat="43.66254" lon="7.03831">
        <ele>171.3</ele>
        <time>2009-04-06T10:31:20Z</time>
      </trkpt>
      <trkpt lat="43.66281" lon="7.03855">
        <ele>168.8</ele>
        <time>2009-04-06T10:31:24Z</time>
      </trkpt>
      <trkpt lat="43.66302" lon="7.03884">
        <ele>168.4</ele>
        <time>2009-04-06T10:31:28Z</time>
      </trkpt>
      <trkpt lat="43.66325" lon="7.03916">
        <ele>167.9</ele>
        <time>2009-04-06T10:31:33Z</time>
      </trkpt>
      <trkpt lat="43.6634" lon="7.03951">
        <ele>168.8</ele>
        <time>2009-04-06T10:31:38Z</time>
      </trkpt>
      <trkpt lat="43.66358" lon="7.03987">
        <ele>169.8</ele>
        <time>2009-04-06T10:31:43Z</time>
      </trkpt>
      <trkpt lat="43.66377" lon="7.04025">
        <ele>169.8</ele>
        <time>2009-04-06T10:31:48Z</time>
      </trkpt>
      <trkpt lat="43.66393" lon="7.04056">
        <ele>169.3</ele>
        <time>2009-04-06T10:31:52Z</time>
      </trkpt>
      <trkpt lat="43.66409" lon="7.0409">
        <ele>168.4</ele>
        <time>2009-04-06T10:31:56Z</time>
      </trkpt>
      <trkpt lat="43.66424" lon="7.04124">
        <ele>168.4</ele>
        <time>2009-04-06T10:32:00Z</time>
      </trkpt>
      <trkpt lat="43.66439" lon="7.04159">
        <ele>167.9</ele>
        <time>2009-04-06T10:32:04Z</time>
      </trkpt>
      <trkpt lat="43.66453" lon="7.04199">
        <ele>168.8</ele>
        <time>2009-04-06T10:32:09Z</time>
      </trkpt>
      <trkpt lat="43.66465" lon="7.04238">
        <ele>170.8</ele>
        <time>2009-04-06T10:32:15Z</time>
      </trkpt>
      <trkpt lat="43.66477" lon="7.04276">
        <ele>173.2</ele>
        <time>2009-04-06T10:32:22Z</time>
      </trkpt>
      <trkpt lat="43.66487" lon="7.04315">
        <ele>176.1</ele>
        <time>2009-04-06T10:32:29Z</time>
      </trkpt>
      <trkpt lat="43.66497" lon="7.04359">
        <ele>177.5</ele>
        <time>2009-04-06T10:32:36Z</time>
      </trkpt>
      <trkpt lat="43.66504" lon="7.04398">
        <ele>179.4</ele>
        <time>2009-04-06T10:32:42Z</time>
      </trkpt>
      <trkpt lat="43.66505" lon="7.04442">
        <ele>179.9</ele>
        <time>2009-04-06T10:32:48Z</time>
      </trkpt>
      <trkpt lat="43.66497" lon="7.04485">
        <ele>183.7</ele>
        <time>2009-04-06T10:32:54Z</time>
      </trkpt>
      <trkpt lat="43.66484" lon="7.04523">
        <ele>186.6</ele>
        <time>2009-04-06T10:33:01Z</time>
      </trkpt>
      <trkpt lat="43.66465" lon="7.0455">
        <ele>185.2</ele>
        <time>2009-04-06T10:33:08Z</time>
      </trkpt>
      <trkpt lat="43.66484" lon="7.04584">
        <ele>182.3</ele>
        <time>2009-04-06T10:33:15Z</time>
      </trkpt>
      <trkpt lat="43.66493" lon="7.04627">
        <ele>178.9</ele>
        <time>2009-04-06T10:33:20Z</time>
      </trkpt>
      <trkpt lat="43.66503" lon="7.04668">
        <ele>176.5</ele>
        <time>2009-04-06T10:33:25Z</time>
      </trkpt>
      <trkpt lat="43.66514" lon="7.04707">
        <ele>176.5</ele>
        <time>2009-04-06T10:33:30Z</time>
      </trkpt>
      <trkpt lat="43.66527" lon="7.04747">
        <ele>174.6</ele>
        <time>2009-04-06T10:33:35Z</time>
      </trkpt>
      <trkpt lat="43.66538" lon="7.0479">
        <ele>174.6</ele>
        <time>2009-04-06T10:33:40Z</time>
      </trkpt>
      <trkpt lat="43.66545" lon="7.04827">
        <ele>174.1</ele>
        <time>2009-04-06T10:33:44Z</time>
      </trkpt>
      <trkpt lat="43.66549" lon="7.04864">
        <ele>173.2</ele>
        <time>2009-04-06T10:33:48Z</time>
      </trkpt>
      <trkpt lat="43.66552" lon="7.04904">
        <ele>174.1</ele>
        <time>2009-04-06T10:33:52Z</time>
      </trkpt>
      <trkpt lat="43.66554" lon="7.04945">
        <ele>174.6</ele>
        <time>2009-04-06T10:33:57Z</time>
      </trkpt>
      <trkpt lat="43.66555" lon="7.04984">
        <ele>174.1</ele>
        <time>2009-04-06T10:34:02Z</time>
      </trkpt>
      <trkpt lat="43.66554" lon="7.05028">
        <ele>173.7</ele>
        <time>2009-04-06T10:34:07Z</time>
      </trkpt>
      <trkpt lat="43.66548" lon="7.0507">
        <ele>176.1</ele>
        <time>2009-04-06T10:34:11Z</time>
      </trkpt>
      <trkpt lat="43.66541" lon="7.05107">
        <ele>177</ele>
        <time>2009-04-06T10:34:15Z</time>
      </trkpt>
      <trkpt lat="43.66529" lon="7.05149">
        <ele>177.5</ele>
        <time>2009-04-06T10:34:20Z</time>
      </trkpt>
      <trkpt lat="43.66518" lon="7.05187">
        <ele>177</ele>
        <time>2009-04-06T10:34:26Z</time>
      </trkpt>
      <trkpt lat="43.66504" lon="7.05231">
        <ele>179.9</ele>
        <time>2009-04-06T10:34:35Z</time>
      </trkpt>
      <trkpt lat="43.66485" lon="7.05265">
        <ele>184.2</ele>
        <time>2009-04-06T10:34:44Z</time>
      </trkpt>
      <trkpt lat="43.66484" lon="7.05304">
        <ele>183.3</ele>
        <time>2009-04-06T10:34:52Z</time>
      </trkpt>
      <trkpt lat="43.66508" lon="7.05305">
        <ele>182.8</ele>
        <time>2009-04-06T10:34:58Z</time>
      </trkpt>
      <trkpt lat="43.6652" lon="7.05268">
        <ele>182.3</ele>
        <time>2009-04-06T10:35:03Z</time>
      </trkpt>
      <trkpt lat="43.66539" lon="7.05236">
        <ele>182.8</ele>
        <time>2009-04-06T10:35:07Z</time>
      </trkpt>
      <trkpt lat="43.66561" lon="7.05212">
        <ele>183.3</ele>
        <time>2009-04-06T10:35:11Z</time>
      </trkpt>
      <trkpt lat="43.66581" lon="7.05185">
        <ele>183.3</ele>
        <time>2009-04-06T10:35:15Z</time>
      </trkpt>
      <trkpt lat="43.66601" lon="7.05148">
        <ele>181.8</ele>
        <time>2009-04-06T10:35:20Z</time>
      </trkpt>
      <trkpt lat="43.66614" lon="7.05109">
        <ele>180.4</ele>
        <time>2009-04-06T10:35:25Z</time>
      </trkpt>
      <trkpt lat="43.66627" lon="7.0507">
        <ele>178.9</ele>
        <time>2009-04-06T10:35:30Z</time>
      </trkpt>
      <trkpt lat="43.66639" lon="7.0503">
        <ele>178</ele>
        <time>2009-04-06T10:35:35Z</time>
      </trkpt>
      <trkpt lat="43.66649" lon="7.04989">
        <ele>177</ele>
        <time>2009-04-06T10:35:40Z</time>
      </trkpt>
      <trkpt lat="43.6666" lon="7.04952">
        <ele>178.5</ele>
        <time>2009-04-06T10:35:45Z</time>
      </trkpt>
      <trkpt lat="43.6667" lon="7.04914">
        <ele>179.4</ele>
        <time>2009-04-06T10:35:50Z</time>
      </trkpt>
      <trkpt lat="43.6668" lon="7.04876">
        <ele>181.8</ele>
        <time>2009-04-06T10:35:55Z</time>
      </trkpt>
      <trkpt lat="43.6669" lon="7.04839">
        <ele>182.8</ele>
        <time>2009-04-06T10:36:00Z</time>
      </trkpt>
      <trkpt lat="43.66699" lon="7.04802">
        <ele>183.7</ele>
        <time>2009-04-06T10:36:05Z</time>
      </trkpt>
      <trkpt lat="43.66709" lon="7.04764">
        <ele>184.2</ele>
        <time>2009-04-06T10:36:10Z</time>
      </trkpt>
      <trkpt lat="43.66724" lon="7.04726">
        <ele>183.3</ele>
        <time>2009-04-06T10:36:16Z</time>
      </trkpt>
      <trkpt lat="43.66728" lon="7.04689">
        <ele>182.3</ele>
        <time>2009-04-06T10:36:21Z</time>
      </trkpt>
      <trkpt lat="43.66738" lon="7.04652">
        <ele>182.8</ele>
        <time>2009-04-06T10:36:26Z</time>
      </trkpt>
      <trkpt lat="43.66749" lon="7.04613">
        <ele>181.8</ele>
        <time>2009-04-06T10:36:31Z</time>
      </trkpt>
      <trkpt lat="43.6676" lon="7.04571">
        <ele>183.3</ele>
        <time>2009-04-06T10:36:36Z</time>
      </trkpt>
      <trkpt lat="43.66771" lon="7.0453">
        <ele>182.8</ele>
        <time>2009-04-06T10:36:41Z</time>
      </trkpt>
      <trkpt lat="43.66781" lon="7.0449">
        <ele>184.7</ele>
        <time>2009-04-06T10:36:46Z</time>
      </trkpt>
      <trkpt lat="43.66791" lon="7.0445">
        <ele>184.2</ele>
        <time>2009-04-06T10:36:51Z</time>
      </trkpt>
      <trkpt lat="43.66801" lon="7.04411">
        <ele>184.7</ele>
        <time>2009-04-06T10:36:56Z</time>
      </trkpt>
      <trkpt lat="43.6681" lon="7.04374">
        <ele>185.2</ele>
        <time>2009-04-06T10:37:01Z</time>
      </trkpt>
      <trkpt lat="43.6682" lon="7.04336">
        <ele>186.6</ele>
        <time>2009-04-06T10:37:06Z</time>
      </trkpt>
      <trkpt lat="43.66835" lon="7.043">
        <ele>188.1</ele>
        <time>2009-04-06T10:37:12Z</time>
      </trkpt>
      <trkpt lat="43.66842" lon="7.04264">
        <ele>188.1</ele>
        <time>2009-04-06T10:37:18Z</time>
      </trkpt>
      <trkpt lat="43.66849" lon="7.04225">
        <ele>189.5</ele>
        <time>2009-04-06T10:37:24Z</time>
      </trkpt>
      <trkpt lat="43.6686" lon="7.0419">
        <ele>190.5</ele>
        <time>2009-04-06T10:37:30Z</time>
      </trkpt>
      <trkpt lat="43.66876" lon="7.04157">
        <ele>190.5</ele>
        <time>2009-04-06T10:37:36Z</time>
      </trkpt>
      <trkpt lat="43.66895" lon="7.04128">
        <ele>189.5</ele>
        <time>2009-04-06T10:37:42Z</time>
      </trkpt>
      <trkpt lat="43.66916" lon="7.04104">
        <ele>189.5</ele>
        <time>2009-04-06T10:37:48Z</time>
      </trkpt>
      <trkpt lat="43.66941" lon="7.04081">
        <ele>189.5</ele>
        <time>2009-04-06T10:37:55Z</time>
      </trkpt>
      <trkpt lat="43.66965" lon="7.04055">
        <ele>189.5</ele>
        <time>2009-04-06T10:38:02Z</time>
      </trkpt>
      <trkpt lat="43.66987" lon="7.04028">
        <ele>191.4</ele>
        <time>2009-04-06T10:38:09Z</time>
      </trkpt>
      <trkpt lat="43.6701" lon="7.03998">
        <ele>193.8</ele>
        <time>2009-04-06T10:38:16Z</time>
      </trkpt>
      <trkpt lat="43.67035" lon="7.0397">
        <ele>194.3</ele>
        <time>2009-04-06T10:38:23Z</time>
      </trkpt>
      <trkpt lat="43.67057" lon="7.03939">
        <ele>196.7</ele>
        <time>2009-04-06T10:38:30Z</time>
      </trkpt>
      <trkpt lat="43.6708" lon="7.03911">
        <ele>198.2</ele>
        <time>2009-04-06T10:38:37Z</time>
      </trkpt>
      <trkpt lat="43.67103" lon="7.03882">
        <ele>200.1</ele>
        <time>2009-04-06T10:38:44Z</time>
      </trkpt>
      <trkpt lat="43.67123" lon="7.03856">
        <ele>202</ele>
        <time>2009-04-06T10:38:52Z</time>
      </trkpt>
      <trkpt lat="43.67136" lon="7.03841">
        <ele>205.9</ele>
        <time>2009-04-06T10:40:21Z</time>
      </trkpt>
      <trkpt lat="43.67159" lon="7.0381">
        <ele>205.9</ele>
        <time>2009-04-06T10:40:31Z</time>
      </trkpt>
      <trkpt lat="43.6718" lon="7.03785">
        <ele>206.8</ele>
        <time>2009-04-06T10:40:39Z</time>
      </trkpt>
      <trkpt lat="43.67199" lon="7.03756">
        <ele>207.3</ele>
        <time>2009-04-06T10:40:47Z</time>
      </trkpt>
      <trkpt lat="43.67213" lon="7.03722">
        <ele>207.8</ele>
        <time>2009-04-06T10:40:55Z</time>
      </trkpt>
      <trkpt lat="43.67221" lon="7.03686">
        <ele>208.3</ele>
        <time>2009-04-06T10:41:02Z</time>
      </trkpt>
      <trkpt lat="43.67223" lon="7.03645">
        <ele>209.2</ele>
        <time>2009-04-06T10:41:09Z</time>
      </trkpt>
      <trkpt lat="43.6722" lon="7.03607">
        <ele>209.2</ele>
        <time>2009-04-06T10:41:15Z</time>
      </trkpt>
      <trkpt lat="43.67217" lon="7.0357">
        <ele>209.2</ele>
        <time>2009-04-06T10:41:21Z</time>
      </trkpt>
      <trkpt lat="43.67213" lon="7.03531">
        <ele>210.2</ele>
        <time>2009-04-06T10:41:27Z</time>
      </trkpt>
      <trkpt lat="43.67209" lon="7.0349">
        <ele>210.2</ele>
        <time>2009-04-06T10:41:33Z</time>
      </trkpt>
      <trkpt lat="43.67205" lon="7.03452">
        <ele>210.7</ele>
        <time>2009-04-06T10:41:39Z</time>
      </trkpt>
      <trkpt lat="43.672" lon="7.03413">
        <ele>211.1</ele>
        <time>2009-04-06T10:41:45Z</time>
      </trkpt>
      <trkpt lat="43.67196" lon="7.03375">
        <ele>213.6</ele>
        <time>2009-04-06T10:41:51Z</time>
      </trkpt>
      <trkpt lat="43.67192" lon="7.03336">
        <ele>213.6</ele>
        <time>2009-04-06T10:41:57Z</time>
      </trkpt>
      <trkpt lat="43.67188" lon="7.03297">
        <ele>213.6</ele>
        <time>2009-04-06T10:42:03Z</time>
      </trkpt>
      <trkpt lat="43.67184" lon="7.03259">
        <ele>213.1</ele>
        <time>2009-04-06T10:42:09Z</time>
      </trkpt>
      <trkpt lat="43.6718" lon="7.0322">
        <ele>213.1</ele>
        <time>2009-04-06T10:42:15Z</time>
      </trkpt>
      <trkpt lat="43.67177" lon="7.03181">
        <ele>214.5</ele>
        <time>2009-04-06T10:42:21Z</time>
      </trkpt>
      <trkpt lat="43.67172" lon="7.03143">
        <ele>216</ele>
        <time>2009-04-06T10:42:27Z</time>
      </trkpt>
      <trkpt lat="43.67168" lon="7.03103">
        <ele>216.4</ele>
        <time>2009-04-06T10:42:34Z</time>
      </trkpt>
      <trkpt lat="43.67164" lon="7.03061">
        <ele>217.9</ele>
        <time>2009-04-06T10:42:40Z</time>
      </trkpt>
      <trkpt lat="43.6716" lon="7.03019">
        <ele>217.4</ele>
        <time>2009-04-06T10:42:47Z</time>
      </trkpt>
      <trkpt lat="43.67158" lon="7.02978">
        <ele>216</ele>
        <time>2009-04-06T10:42:54Z</time>
      </trkpt>
      <trkpt lat="43.67159" lon="7.02938">
        <ele>217.4</ele>
        <time>2009-04-06T10:43:01Z</time>
      </trkpt>
      <trkpt lat="43.67164" lon="7.02898">
        <ele>222.7</ele>
        <time>2009-04-06T10:43:08Z</time>
      </trkpt>
      <trkpt lat="43.67175" lon="7.02862">
        <ele>227.5</ele>
        <time>2009-04-06T10:43:15Z</time>
      </trkpt>
      <trkpt lat="43.67195" lon="7.02831">
        <ele>230.4</ele>
        <time>2009-04-06T10:43:22Z</time>
      </trkpt>
      <trkpt lat="43.67214" lon="7.02802">
        <ele>232.8</ele>
        <time>2009-04-06T10:43:29Z</time>
      </trkpt>
      <trkpt lat="43.67228" lon="7.02768">
        <ele>233.7</ele>
        <time>2009-04-06T10:43:36Z</time>
      </trkpt>
      <trkpt lat="43.67232" lon="7.02733">
        <ele>230.9</ele>
        <time>2009-04-06T10:43:43Z</time>
      </trkpt>
      <trkpt lat="43.67217" lon="7.02694">
        <ele>229.4</ele>
        <time>2009-04-06T10:43:51Z</time>
      </trkpt>
      <trkpt lat="43.67199" lon="7.02657">
        <ele>228.9</ele>
        <time>2009-04-06T10:43:58Z</time>
      </trkpt>
      <trkpt lat="43.67185" lon="7.02623">
        <ele>228.9</ele>
        <time>2009-04-06T10:44:05Z</time>
      </trkpt>
      <trkpt lat="43.67179" lon="7.02581">
        <ele>232.3</ele>
        <time>2009-04-06T10:44:13Z</time>
      </trkpt>
      <trkpt lat="43.67185" lon="7.02543">
        <ele>237.6</ele>
        <time>2009-04-06T10:44:21Z</time>
      </trkpt>
      <trkpt lat="43.67198" lon="7.02508">
        <ele>243.4</ele>
        <time>2009-04-06T10:44:29Z</time>
      </trkpt>
      <trkpt lat="43.6722" lon="7.02475">
        <ele>245.3</ele>
        <time>2009-04-06T10:44:37Z</time>
      </trkpt>
      <trkpt lat="43.67243" lon="7.02446">
        <ele>247.2</ele>
        <time>2009-04-06T10:44:45Z</time>
      </trkpt>
      <trkpt lat="43.67265" lon="7.02425">
        <ele>247.7</ele>
        <time>2009-04-06T10:44:52Z</time>
      </trkpt>
      <trkpt lat="43.67291" lon="7.02407">
        <ele>250.6</ele>
        <time>2009-04-06T10:44:59Z</time>
      </trkpt>
      <trkpt lat="43.67318" lon="7.02394">
        <ele>253</ele>
        <time>2009-04-06T10:45:06Z</time>
      </trkpt>
      <trkpt lat="43.67346" lon="7.02383">
        <ele>256.8</ele>
        <time>2009-04-06T10:45:13Z</time>
      </trkpt>
      <trkpt lat="43.67377" lon="7.02374">
        <ele>264</ele>
        <time>2009-04-06T10:45:21Z</time>
      </trkpt>
      <trkpt lat="43.67405" lon="7.02366">
        <ele>264.5</ele>
        <time>2009-04-06T10:45:29Z</time>
      </trkpt>
      <trkpt lat="43.67435" lon="7.02355">
        <ele>268.3</ele>
        <time>2009-04-06T10:45:38Z</time>
      </trkpt>
      <trkpt lat="43.67461" lon="7.02335">
        <ele>260.7</ele>
        <time>2009-04-06T10:45:46Z</time>
      </trkpt>
      <trkpt lat="43.6748" lon="7.02301">
        <ele>257.8</ele>
        <time>2009-04-06T10:45:54Z</time>
      </trkpt>
      <trkpt lat="43.67493" lon="7.02266">
        <ele>259.7</ele>
        <time>2009-04-06T10:46:01Z</time>
      </trkpt>
      <trkpt lat="43.67506" lon="7.02231">
        <ele>260.2</ele>
        <time>2009-04-06T10:46:08Z</time>
      </trkpt>
      <trkpt lat="43.67517" lon="7.02195">
        <ele>261.6</ele>
        <time>2009-04-06T10:46:15Z</time>
      </trkpt>
      <trkpt lat="43.6752" lon="7.02158">
        <ele>261.6</ele>
        <time>2009-04-06T10:46:22Z</time>
      </trkpt>
      <trkpt lat="43.67521" lon="7.02115">
        <ele>261.6</ele>
        <time>2009-04-06T10:46:30Z</time>
      </trkpt>
      <trkpt lat="43.67524" lon="7.02075">
        <ele>264.5</ele>
        <time>2009-04-06T10:46:38Z</time>
      </trkpt>
      <trkpt lat="43.67537" lon="7.0204">
        <ele>264.5</ele>
        <time>2009-04-06T10:46:46Z</time>
      </trkpt>
      <trkpt lat="43.67552" lon="7.02005">
        <ele>265.5</ele>
        <time>2009-04-06T10:46:54Z</time>
      </trkpt>
      <trkpt lat="43.67568" lon="7.0197">
        <ele>267.4</ele>
        <time>2009-04-06T10:47:02Z</time>
      </trkpt>
      <trkpt lat="43.67583" lon="7.01935">
        <ele>269.8</ele>
        <time>2009-04-06T10:47:10Z</time>
      </trkpt>
      <trkpt lat="43.67601" lon="7.01903">
        <ele>269.8</ele>
        <time>2009-04-06T10:47:18Z</time>
      </trkpt>
      <trkpt lat="43.6762" lon="7.01873">
        <ele>270.7</ele>
        <time>2009-04-06T10:47:26Z</time>
      </trkpt>
      <trkpt lat="43.67644" lon="7.0185">
        <ele>269.8</ele>
        <time>2009-04-06T10:47:34Z</time>
      </trkpt>
      <trkpt lat="43.67669" lon="7.01831">
        <ele>269.8</ele>
        <time>2009-04-06T10:47:42Z</time>
      </trkpt>
      <trkpt lat="43.67692" lon="7.01804">
        <ele>267.4</ele>
        <time>2009-04-06T10:47:50Z</time>
      </trkpt>
      <trkpt lat="43.67716" lon="7.01782">
        <ele>266.4</ele>
        <time>2009-04-06T10:47:57Z</time>
      </trkpt>
      <trkpt lat="43.67727" lon="7.01748">
        <ele>265.9</ele>
        <time>2009-04-06T10:48:04Z</time>
      </trkpt>
      <trkpt lat="43.67734" lon="7.01709">
        <ele>266.4</ele>
        <time>2009-04-06T10:48:13Z</time>
      </trkpt>
      <trkpt lat="43.67748" lon="7.01675">
        <ele>269.3</ele>
        <time>2009-04-06T10:48:21Z</time>
      </trkpt>
      <trkpt lat="43.67761" lon="7.01641">
        <ele>272.2</ele>
        <time>2009-04-06T10:48:29Z</time>
      </trkpt>
      <trkpt lat="43.67771" lon="7.01604">
        <ele>273.2</ele>
        <time>2009-04-06T10:48:37Z</time>
      </trkpt>
      <trkpt lat="43.67773" lon="7.01562">
        <ele>272.2</ele>
        <time>2009-04-06T10:48:44Z</time>
      </trkpt>
      <trkpt lat="43.67769" lon="7.01521">
        <ele>270.3</ele>
        <time>2009-04-06T10:48:51Z</time>
      </trkpt>
      <trkpt lat="43.67772" lon="7.01483">
        <ele>270.3</ele>
        <time>2009-04-06T10:48:57Z</time>
      </trkpt>
      <trkpt lat="43.67794" lon="7.01482">
        <ele>271.2</ele>
        <time>2009-04-06T10:49:04Z</time>
      </trkpt>
      <trkpt lat="43.67815" lon="7.0151">
        <ele>272.2</ele>
        <time>2009-04-06T10:49:12Z</time>
      </trkpt>
      <trkpt lat="43.67843" lon="7.01521">
        <ele>275.6</ele>
        <time>2009-04-06T10:49:27Z</time>
      </trkpt>
      <trkpt lat="43.67865" lon="7.01495">
        <ele>276.5</ele>
        <time>2009-04-06T10:49:38Z</time>
      </trkpt>
      <trkpt lat="43.67882" lon="7.01466">
        <ele>280.8</ele>
        <time>2009-04-06T10:49:47Z</time>
      </trkpt>
      <trkpt lat="43.67897" lon="7.01432">
        <ele>283.7</ele>
        <time>2009-04-06T10:50:00Z</time>
      </trkpt>
      <trkpt lat="43.6791" lon="7.01434">
        <ele>287.1</ele>
        <time>2009-04-06T10:50:14Z</time>
      </trkpt>
      <trkpt lat="43.67906" lon="7.01474">
        <ele>291.9</ele>
        <time>2009-04-06T10:50:28Z</time>
      </trkpt>
      <trkpt lat="43.67904" lon="7.01516">
        <ele>296.2</ele>
        <time>2009-04-06T10:50:42Z</time>
      </trkpt>
      <trkpt lat="43.67903" lon="7.01556">
        <ele>298.6</ele>
        <time>2009-04-06T10:50:54Z</time>
      </trkpt>
      <trkpt lat="43.67922" lon="7.01586">
        <ele>295.7</ele>
        <time>2009-04-06T10:51:05Z</time>
      </trkpt>
      <trkpt lat="43.6794" lon="7.01612">
        <ele>298.6</ele>
        <time>2009-04-06T10:51:19Z</time>
      </trkpt>
      <trkpt lat="43.67959" lon="7.01641">
        <ele>299.6</ele>
        <time>2009-04-06T10:51:33Z</time>
      </trkpt>
      <trkpt lat="43.67983" lon="7.01665">
        <ele>299.6</ele>
        <time>2009-04-06T10:51:49Z</time>
      </trkpt>
      <trkpt lat="43.68012" lon="7.01675">
        <ele>299.1</ele>
        <time>2009-04-06T10:52:04Z</time>
      </trkpt>
      <trkpt lat="43.6804" lon="7.0169">
        <ele>306.8</ele>
        <time>2009-04-06T10:52:18Z</time>
      </trkpt>
      <trkpt lat="43.68065" lon="7.01674">
        <ele>308.2</ele>
        <time>2009-04-06T10:52:31Z</time>
      </trkpt>
      <trkpt lat="43.68083" lon="7.01647">
        <ele>311.1</ele>
        <time>2009-04-06T10:52:42Z</time>
      </trkpt>
      <trkpt lat="43.68086" lon="7.01609">
        <ele>312.6</ele>
        <time>2009-04-06T10:52:55Z</time>
      </trkpt>
      <trkpt lat="43.68108" lon="7.0158">
        <ele>313</ele>
        <time>2009-04-06T10:53:06Z</time>
      </trkpt>
      <trkpt lat="43.68125" lon="7.01547">
        <ele>312.1</ele>
        <time>2009-04-06T10:53:14Z</time>
      </trkpt>
      <trkpt lat="43.6814" lon="7.01512">
        <ele>311.1</ele>
        <time>2009-04-06T10:53:22Z</time>
      </trkpt>
      <trkpt lat="43.68152" lon="7.01474">
        <ele>310.6</ele>
        <time>2009-04-06T10:53:30Z</time>
      </trkpt>
      <trkpt lat="43.68162" lon="7.01434">
        <ele>308.2</ele>
        <time>2009-04-06T10:53:38Z</time>
      </trkpt>
      <trkpt lat="43.68183" lon="7.01404">
        <ele>308.7</ele>
        <time>2009-04-06T10:53:46Z</time>
      </trkpt>
      <trkpt lat="43.68207" lon="7.01407">
        <ele>309.2</ele>
        <time>2009-04-06T10:53:56Z</time>
      </trkpt>
      <trkpt lat="43.68233" lon="7.01432">
        <ele>306.8</ele>
        <time>2009-04-06T10:54:03Z</time>
      </trkpt>
      <trkpt lat="43.68261" lon="7.01446">
        <ele>304.4</ele>
        <time>2009-04-06T10:54:07Z</time>
      </trkpt>
      <trkpt lat="43.68291" lon="7.01459">
        <ele>304.4</ele>
        <time>2009-04-06T10:54:11Z</time>
      </trkpt>
      <trkpt lat="43.68316" lon="7.01476">
        <ele>303</ele>
        <time>2009-04-06T10:54:15Z</time>
      </trkpt>
      <trkpt lat="43.68339" lon="7.01478">
        <ele>303.9</ele>
        <time>2009-04-06T10:54:26Z</time>
      </trkpt>
      <trkpt lat="43.68361" lon="7.01443">
        <ele>308.7</ele>
        <time>2009-04-06T10:54:49Z</time>
      </trkpt>
      <trkpt lat="43.68392" lon="7.01423">
        <ele>323.6</ele>
        <time>2009-04-06T10:55:10Z</time>
      </trkpt>
      <trkpt lat="43.68421" lon="7.01415">
        <ele>329.4</ele>
        <time>2009-04-06T10:55:23Z</time>
      </trkpt>
      <trkpt lat="43.68452" lon="7.01411">
        <ele>328.9</ele>
        <time>2009-04-06T10:55:34Z</time>
      </trkpt>
      <trkpt lat="43.68481" lon="7.01406">
        <ele>329.9</ele>
        <time>2009-04-06T10:55:45Z</time>
      </trkpt>
      <trkpt lat="43.68509" lon="7.01398">
        <ele>330.8</ele>
        <time>2009-04-06T10:55:56Z</time>
      </trkpt>
      <trkpt lat="43.68536" lon="7.01389">
        <ele>329.4</ele>
        <time>2009-04-06T10:56:06Z</time>
      </trkpt>
      <trkpt lat="43.68563" lon="7.01387">
        <ele>329.4</ele>
        <time>2009-04-06T10:56:15Z</time>
      </trkpt>
      <trkpt lat="43.6859" lon="7.01398">
        <ele>328.9</ele>
        <time>2009-04-06T10:56:22Z</time>
      </trkpt>
      <trkpt lat="43.68617" lon="7.01399">
        <ele>326.5</ele>
        <time>2009-04-06T10:56:28Z</time>
      </trkpt>
      <trkpt lat="43.68649" lon="7.01392">
        <ele>326</ele>
        <time>2009-04-06T10:56:35Z</time>
      </trkpt>
      <trkpt lat="43.68677" lon="7.01387">
        <ele>330.4</ele>
        <time>2009-04-06T10:56:43Z</time>
      </trkpt>
      <trkpt lat="43.68705" lon="7.01372">
        <ele>334.7</ele>
        <time>2009-04-06T10:56:54Z</time>
      </trkpt>
      <trkpt lat="43.68723" lon="7.0134">
        <ele>336.1</ele>
        <time>2009-04-06T10:57:06Z</time>
      </trkpt>
      <trkpt lat="43.68735" lon="7.01299">
        <ele>339</ele>
        <time>2009-04-06T10:57:19Z</time>
      </trkpt>
      <trkpt lat="43.68753" lon="7.01279">
        <ele>341.9</ele>
        <time>2009-04-06T10:57:33Z</time>
      </trkpt>
      <trkpt lat="43.68778" lon="7.01303">
        <ele>337.6</ele>
        <time>2009-04-06T10:57:51Z</time>
      </trkpt>
      <trkpt lat="43.68811" lon="7.01323">
        <ele>342.4</ele>
        <time>2009-04-06T10:58:09Z</time>
      </trkpt>
      <trkpt lat="43.68832" lon="7.01302">
        <ele>352</ele>
        <time>2009-04-06T10:58:25Z</time>
      </trkpt>
      <trkpt lat="43.68846" lon="7.01264">
        <ele>354.4</ele>
        <time>2009-04-06T10:58:36Z</time>
      </trkpt>
      <trkpt lat="43.68866" lon="7.01237">
        <ele>354.4</ele>
        <time>2009-04-06T10:58:45Z</time>
      </trkpt>
      <trkpt lat="43.68895" lon="7.01226">
        <ele>352</ele>
        <time>2009-04-06T10:58:55Z</time>
      </trkpt>
      <trkpt lat="43.68924" lon="7.01234">
        <ele>350.5</ele>
        <time>2009-04-06T10:59:00Z</time>
      </trkpt>
      <trkpt lat="43.68955" lon="7.01244">
        <ele>351.5</ele>
        <time>2009-04-06T10:59:09Z</time>
      </trkpt>
      <trkpt lat="43.68985" lon="7.01259">
        <ele>355.3</ele>
        <time>2009-04-06T10:59:32Z</time>
      </trkpt>
      <trkpt lat="43.69013" lon="7.01276">
        <ele>359.7</ele>
        <time>2009-04-06T10:59:46Z</time>
      </trkpt>
      <trkpt lat="43.69037" lon="7.01294">
        <ele>355.8</ele>
        <time>2009-04-06T10:59:58Z</time>
      </trkpt>
      <trkpt lat="43.69042" lon="7.01337">
        <ele>352.9</ele>
        <time>2009-04-06T11:00:03Z</time>
      </trkpt>
      <trkpt lat="43.69049" lon="7.01378">
        <ele>349.6</ele>
        <time>2009-04-06T11:00:07Z</time>
      </trkpt>
      <trkpt lat="43.69059" lon="7.01417">
        <ele>346.7</ele>
        <time>2009-04-06T11:00:11Z</time>
      </trkpt>
      <trkpt lat="43.69077" lon="7.01459">
        <ele>342.4</ele>
        <time>2009-04-06T11:00:15Z</time>
      </trkpt>
      <trkpt lat="43.6909" lon="7.01493">
        <ele>340</ele>
        <time>2009-04-06T11:00:19Z</time>
      </trkpt>
      <trkpt lat="43.69103" lon="7.01467">
        <ele>332.8</ele>
        <time>2009-04-06T11:00:26Z</time>
      </trkpt>
      <trkpt lat="43.691" lon="7.01426">
        <ele>329.9</ele>
        <time>2009-04-06T11:00:30Z</time>
      </trkpt>
      <trkpt lat="43.69102" lon="7.0138">
        <ele>325.5</ele>
        <time>2009-04-06T11:00:35Z</time>
      </trkpt>
      <trkpt lat="43.69105" lon="7.01342">
        <ele>321.7</ele>
        <time>2009-04-06T11:00:40Z</time>
      </trkpt>
      <trkpt lat="43.6912" lon="7.01301">
        <ele>317.9</ele>
        <time>2009-04-06T11:00:44Z</time>
      </trkpt>
      <trkpt lat="43.69138" lon="7.01269">
        <ele>314</ele>
        <time>2009-04-06T11:00:48Z</time>
      </trkpt>
      <trkpt lat="43.69159" lon="7.01238">
        <ele>310.2</ele>
        <time>2009-04-06T11:00:52Z</time>
      </trkpt>
      <trkpt lat="43.69177" lon="7.01203">
        <ele>305.8</ele>
        <time>2009-04-06T11:00:56Z</time>
      </trkpt>
      <trkpt lat="43.69182" lon="7.01156">
        <ele>299.6</ele>
        <time>2009-04-06T11:01:00Z</time>
      </trkpt>
      <trkpt lat="43.69189" lon="7.01116">
        <ele>294.8</ele>
        <time>2009-04-06T11:01:03Z</time>
      </trkpt>
      <trkpt lat="43.692" lon="7.01078">
        <ele>293.3</ele>
        <time>2009-04-06T11:01:06Z</time>
      </trkpt>
      <trkpt lat="43.69217" lon="7.01036">
        <ele>290.5</ele>
        <time>2009-04-06T11:01:10Z</time>
      </trkpt>
      <trkpt lat="43.69237" lon="7.00994">
        <ele>286.1</ele>
        <time>2009-04-06T11:01:14Z</time>
      </trkpt>
      <trkpt lat="43.69255" lon="7.01">
        <ele>280.4</ele>
        <time>2009-04-06T11:01:19Z</time>
      </trkpt>
      <trkpt lat="43.69264" lon="7.01042">
        <ele>278</ele>
        <time>2009-04-06T11:01:24Z</time>
      </trkpt>
      <trkpt lat="43.69274" lon="7.01083">
        <ele>280.4</ele>
        <time>2009-04-06T11:01:31Z</time>
      </trkpt>
      <trkpt lat="43.69259" lon="7.01118">
        <ele>280.8</ele>
        <time>2009-04-06T11:01:39Z</time>
      </trkpt>
      <trkpt lat="43.69252" lon="7.01161">
        <ele>278.4</ele>
        <time>2009-04-06T11:01:45Z</time>
      </trkpt>
      <trkpt lat="43.69251" lon="7.01212">
        <ele>277.5</ele>
        <time>2009-04-06T11:01:50Z</time>
      </trkpt>
      <trkpt lat="43.69256" lon="7.01265">
        <ele>275.1</ele>
        <time>2009-04-06T11:01:54Z</time>
      </trkpt>
      <trkpt lat="43.69263" lon="7.01312">
        <ele>271.7</ele>
        <time>2009-04-06T11:01:58Z</time>
      </trkpt>
      <trkpt lat="43.69269" lon="7.01352">
        <ele>267.4</ele>
        <time>2009-04-06T11:02:03Z</time>
      </trkpt>
      <trkpt lat="43.69295" lon="7.01341">
        <ele>259.7</ele>
        <time>2009-04-06T11:02:10Z</time>
      </trkpt>
      <trkpt lat="43.69314" lon="7.013">
        <ele>256.3</ele>
        <time>2009-04-06T11:02:15Z</time>
      </trkpt>
      <trkpt lat="43.69325" lon="7.01254">
        <ele>253.4</ele>
        <time>2009-04-06T11:02:18Z</time>
      </trkpt>
      <trkpt lat="43.69339" lon="7.01211">
        <ele>250.6</ele>
        <time>2009-04-06T11:02:21Z</time>
      </trkpt>
      <trkpt lat="43.69353" lon="7.01174">
        <ele>248.2</ele>
        <time>2009-04-06T11:02:24Z</time>
      </trkpt>
      <trkpt lat="43.69368" lon="7.0113">
        <ele>245.3</ele>
        <time>2009-04-06T11:02:28Z</time>
      </trkpt>
      <trkpt lat="43.6938" lon="7.01087">
        <ele>241.9</ele>
        <time>2009-04-06T11:02:32Z</time>
      </trkpt>
      <trkpt lat="43.6939" lon="7.01039">
        <ele>236.6</ele>
        <time>2009-04-06T11:02:36Z</time>
      </trkpt>
      <trkpt lat="43.69402" lon="7.00998">
        <ele>235.7</ele>
        <time>2009-04-06T11:02:40Z</time>
      </trkpt>
      <trkpt lat="43.69413" lon="7.00961">
        <ele>234.2</ele>
        <time>2009-04-06T11:02:44Z</time>
      </trkpt>
      <trkpt lat="43.69424" lon="7.00926">
        <ele>232.3</ele>
        <time>2009-04-06T11:02:50Z</time>
      </trkpt>
      <trkpt lat="43.69434" lon="7.00889">
        <ele>230.4</ele>
        <time>2009-04-06T11:02:56Z</time>
      </trkpt>
      <trkpt lat="43.69444" lon="7.00852">
        <ele>228</ele>
        <time>2009-04-06T11:03:01Z</time>
      </trkpt>
      <trkpt lat="43.69459" lon="7.00814">
        <ele>226.5</ele>
        <time>2009-04-06T11:03:06Z</time>
      </trkpt>
      <trkpt lat="43.69477" lon="7.0078">
        <ele>225.1</ele>
        <time>2009-04-06T11:03:11Z</time>
      </trkpt>
      <trkpt lat="43.69501" lon="7.0075">
        <ele>221.7</ele>
        <time>2009-04-06T11:03:16Z</time>
      </trkpt>
      <trkpt lat="43.69524" lon="7.00707">
        <ele>219.3</ele>
        <time>2009-04-06T11:03:20Z</time>
      </trkpt>
      <trkpt lat="43.6954" lon="7.00674">
        <ele>216.9</ele>
        <time>2009-04-06T11:03:23Z</time>
      </trkpt>
      <trkpt lat="43.69562" lon="7.00631">
        <ele>214</ele>
        <time>2009-04-06T11:03:26Z</time>
      </trkpt>
      <trkpt lat="43.69582" lon="7.00589">
        <ele>209.7</ele>
        <time>2009-04-06T11:03:29Z</time>
      </trkpt>
      <trkpt lat="43.69598" lon="7.00552">
        <ele>206.8</ele>
        <time>2009-04-06T11:03:32Z</time>
      </trkpt>
      <trkpt lat="43.69616" lon="7.00518">
        <ele>203</ele>
        <time>2009-04-06T11:03:35Z</time>
      </trkpt>
      <trkpt lat="43.69634" lon="7.00489">
        <ele>200.1</ele>
        <time>2009-04-06T11:03:38Z</time>
      </trkpt>
      <trkpt lat="43.69654" lon="7.00452">
        <ele>194.8</ele>
        <time>2009-04-06T11:03:41Z</time>
      </trkpt>
      <trkpt lat="43.69671" lon="7.00401">
        <ele>186.6</ele>
        <time>2009-04-06T11:03:44Z</time>
      </trkpt>
      <trkpt lat="43.69689" lon="7.00351">
        <ele>175.1</ele>
        <time>2009-04-06T11:03:47Z</time>
      </trkpt>
      <trkpt lat="43.69709" lon="7.00304">
        <ele>162.1</ele>
        <time>2009-04-06T11:03:50Z</time>
      </trkpt>
      <trkpt lat="43.69724" lon="7.00271">
        <ele>153.9</ele>
        <time>2009-04-06T11:03:52Z</time>
      </trkpt>
      <trkpt lat="43.6974" lon="7.00238">
        <ele>148.7</ele>
        <time>2009-04-06T11:03:54Z</time>
      </trkpt>
      <trkpt lat="43.69754" lon="7.00203">
        <ele>146.7</ele>
        <time>2009-04-06T11:03:56Z</time>
      </trkpt>
      <trkpt lat="43.69767" lon="7.00153">
        <ele>142.4</ele>
        <time>2009-04-06T11:03:59Z</time>
      </trkpt>
      <trkpt lat="43.69776" lon="7.00106">
        <ele>141.5</ele>
        <time>2009-04-06T11:04:02Z</time>
      </trkpt>
      <trkpt lat="43.69783" lon="7.00066">
        <ele>140</ele>
        <time>2009-04-06T11:04:05Z</time>
      </trkpt>
      <trkpt lat="43.69782" lon="7.00021">
        <ele>138.6</ele>
        <time>2009-04-06T11:04:09Z</time>
      </trkpt>
      <trkpt lat="43.69776" lon="6.9998">
        <ele>137.1</ele>
        <time>2009-04-06T11:04:15Z</time>
      </trkpt>
      <trkpt lat="43.69761" lon="6.99947">
        <ele>137.6</ele>
        <time>2009-04-06T11:04:26Z</time>
      </trkpt>
      <trkpt lat="43.69739" lon="6.99923">
        <ele>143.4</ele>
        <time>2009-04-06T11:04:42Z</time>
      </trkpt>
      <trkpt lat="43.69739" lon="6.99893">
        <ele>143.4</ele>
        <time>2009-04-06T11:04:57Z</time>
      </trkpt>
      <trkpt lat="43.69764" lon="6.99893">
        <ele>141.9</ele>
        <time>2009-04-06T11:05:10Z</time>
      </trkpt>
      <trkpt lat="43.6979" lon="6.99908">
        <ele>139</ele>
        <time>2009-04-06T11:05:14Z</time>
      </trkpt>
      <trkpt lat="43.69824" lon="6.99923">
        <ele>137.1</ele>
        <time>2009-04-06T11:05:18Z</time>
      </trkpt>
      <trkpt lat="43.69858" lon="6.99927">
        <ele>135.7</ele>
        <time>2009-04-06T11:05:22Z</time>
      </trkpt>
      <trkpt lat="43.69887" lon="6.99914">
        <ele>135.2</ele>
        <time>2009-04-06T11:05:26Z</time>
      </trkpt>
      <trkpt lat="43.69919" lon="6.99899">
        <ele>134.7</ele>
        <time>2009-04-06T11:05:31Z</time>
      </trkpt>
      <trkpt lat="43.69948" lon="6.9989">
        <ele>135.2</ele>
        <time>2009-04-06T11:05:36Z</time>
      </trkpt>
      <trkpt lat="43.69978" lon="6.99893">
        <ele>135.2</ele>
        <time>2009-04-06T11:05:42Z</time>
      </trkpt>
      <trkpt lat="43.70005" lon="6.99907">
        <ele>137.1</ele>
        <time>2009-04-06T11:05:48Z</time>
      </trkpt>
      <trkpt lat="43.70036" lon="6.99917">
        <ele>139.5</ele>
        <time>2009-04-06T11:05:55Z</time>
      </trkpt>
      <trkpt lat="43.70065" lon="6.99917">
        <ele>140.5</ele>
        <time>2009-04-06T11:06:02Z</time>
      </trkpt>
      <trkpt lat="43.70094" lon="6.99905">
        <ele>137.1</ele>
        <time>2009-04-06T11:06:09Z</time>
      </trkpt>
      <trkpt lat="43.70122" lon="6.99897">
        <ele>136.6</ele>
        <time>2009-04-06T11:06:16Z</time>
      </trkpt>
      <trkpt lat="43.70158" lon="6.99885">
        <ele>137.6</ele>
        <time>2009-04-06T11:06:24Z</time>
      </trkpt>
      <trkpt lat="43.70188" lon="6.99872">
        <ele>138.6</ele>
        <time>2009-04-06T11:06:32Z</time>
      </trkpt>
      <trkpt lat="43.70217" lon="6.99849">
        <ele>139</ele>
        <time>2009-04-06T11:06:40Z</time>
      </trkpt>
      <trkpt lat="43.70244" lon="6.99835">
        <ele>140</ele>
        <time>2009-04-06T11:06:48Z</time>
      </trkpt>
      <trkpt lat="43.7026" lon="6.99862">
        <ele>143.9</ele>
        <time>2009-04-06T11:06:57Z</time>
      </trkpt>
      <trkpt lat="43.70277" lon="6.99891">
        <ele>142.4</ele>
        <time>2009-04-06T11:07:04Z</time>
      </trkpt>
      <trkpt lat="43.70296" lon="6.99919">
        <ele>138.6</ele>
        <time>2009-04-06T11:07:09Z</time>
      </trkpt>
      <trkpt lat="43.70326" lon="6.99937">
        <ele>136.6</ele>
        <time>2009-04-06T11:07:14Z</time>
      </trkpt>
      <trkpt lat="43.70328" lon="6.99975">
        <ele>136.2</ele>
        <time>2009-04-06T11:07:20Z</time>
      </trkpt>
      <trkpt lat="43.70345" lon="7.00004">
        <ele>136.6</ele>
        <time>2009-04-06T11:07:27Z</time>
      </trkpt>
      <trkpt lat="43.70366" lon="7.00025">
        <ele>139</ele>
        <time>2009-04-06T11:07:40Z</time>
      </trkpt>
      <trkpt lat="43.70396" lon="7.00035">
        <ele>136.2</ele>
        <time>2009-04-06T11:07:54Z</time>
      </trkpt>
      <trkpt lat="43.70426" lon="7.00051">
        <ele>136.2</ele>
        <time>2009-04-06T11:08:08Z</time>
      </trkpt>
      <trkpt lat="43.70443" lon="7.00062">
        <ele>144.8</ele>
        <time>2009-04-06T11:08:21Z</time>
      </trkpt>
      <trkpt lat="43.70412" lon="7.00063">
        <ele>153</ele>
        <time>2009-04-06T11:08:36Z</time>
      </trkpt>
      <trkpt lat="43.70385" lon="7.00079">
        <ele>156.4</ele>
        <time>2009-04-06T11:08:51Z</time>
      </trkpt>
      <trkpt lat="43.70365" lon="7.00105">
        <ele>155.9</ele>
        <time>2009-04-06T11:08:59Z</time>
      </trkpt>
      <trkpt lat="43.7035" lon="7.00137">
        <ele>155.9</ele>
        <time>2009-04-06T11:09:05Z</time>
      </trkpt>
      <trkpt lat="43.7034" lon="7.00174">
        <ele>153.9</ele>
        <time>2009-04-06T11:09:10Z</time>
      </trkpt>
      <trkpt lat="43.70329" lon="7.00211">
        <ele>152.5</ele>
        <time>2009-04-06T11:09:15Z</time>
      </trkpt>
      <trkpt lat="43.70309" lon="7.00244">
        <ele>152</ele>
        <time>2009-04-06T11:09:21Z</time>
      </trkpt>
      <trkpt lat="43.70279" lon="7.00258">
        <ele>153.5</ele>
        <time>2009-04-06T11:09:27Z</time>
      </trkpt>
      <trkpt lat="43.70256" lon="7.00279">
        <ele>153</ele>
        <time>2009-04-06T11:09:33Z</time>
      </trkpt>
      <trkpt lat="43.70242" lon="7.00313">
        <ele>153.9</ele>
        <time>2009-04-06T11:09:40Z</time>
      </trkpt>
      <trkpt lat="43.70237" lon="7.00351">
        <ele>156.8</ele>
        <time>2009-04-06T11:09:55Z</time>
      </trkpt>
      <trkpt lat="43.70235" lon="7.00386">
        <ele>160.2</ele>
        <time>2009-04-06T11:10:10Z</time>
      </trkpt>
      <trkpt lat="43.70239" lon="7.00424">
        <ele>163.6</ele>
        <time>2009-04-06T11:10:36Z</time>
      </trkpt>
      <trkpt lat="43.70255" lon="7.00459">
        <ele>166.4</ele>
        <time>2009-04-06T11:11:00Z</time>
      </trkpt>
      <trkpt lat="43.70253" lon="7.00493">
        <ele>176.5</ele>
        <time>2009-04-06T11:11:31Z</time>
      </trkpt>
      <trkpt lat="43.70234" lon="7.00515">
        <ele>182.3</ele>
        <time>2009-04-06T11:11:52Z</time>
      </trkpt>
      <trkpt lat="43.70216" lon="7.00562">
        <ele>182.8</ele>
        <time>2009-04-06T11:12:24Z</time>
      </trkpt>
      <trkpt lat="43.70211" lon="7.00602">
        <ele>186.6</ele>
        <time>2009-04-06T11:12:52Z</time>
      </trkpt>
      <trkpt lat="43.7021" lon="7.00663">
        <ele>192.4</ele>
        <time>2009-04-06T11:13:37Z</time>
      </trkpt>
      <trkpt lat="43.70212" lon="7.00704">
        <ele>200.6</ele>
        <time>2009-04-06T11:14:10Z</time>
      </trkpt>
      <trkpt lat="43.70214" lon="7.00749">
        <ele>205.9</ele>
        <time>2009-04-06T11:14:41Z</time>
      </trkpt>
      <trkpt lat="43.70214" lon="7.00787">
        <ele>210.2</ele>
        <time>2009-04-06T11:15:09Z</time>
      </trkpt>
      <trkpt lat="43.70225" lon="7.00827">
        <ele>216</ele>
        <time>2009-04-06T11:15:42Z</time>
      </trkpt>
      <trkpt lat="43.70241" lon="7.00861">
        <ele>221.2</ele>
        <time>2009-04-06T11:16:16Z</time>
      </trkpt>
      <trkpt lat="43.70249" lon="7.00899">
        <ele>226</ele>
        <time>2009-04-06T11:16:37Z</time>
      </trkpt>
      <trkpt lat="43.7026" lon="7.00935">
        <ele>229.9</ele>
        <time>2009-04-06T11:16:56Z</time>
      </trkpt>
      <trkpt lat="43.70278" lon="7.00964">
        <ele>231.3</ele>
        <time>2009-04-06T11:17:12Z</time>
      </trkpt>
      <trkpt lat="43.703" lon="7.00988">
        <ele>230.4</ele>
        <time>2009-04-06T11:17:25Z</time>
      </trkpt>
      <trkpt lat="43.70314" lon="7.01017">
        <ele>230.9</ele>
        <time>2009-04-06T11:17:38Z</time>
      </trkpt>
      <trkpt lat="43.70304" lon="7.01055">
        <ele>231.3</ele>
        <time>2009-04-06T11:17:48Z</time>
      </trkpt>
      <trkpt lat="43.70281" lon="7.0108">
        <ele>231.8</ele>
        <time>2009-04-06T11:17:59Z</time>
      </trkpt>
      <trkpt lat="43.70263" lon="7.01113">
        <ele>233.3</ele>
        <time>2009-04-06T11:18:16Z</time>
      </trkpt>
      <trkpt lat="43.7025" lon="7.01148">
        <ele>236.6</ele>
        <time>2009-04-06T11:18:43Z</time>
      </trkpt>
      <trkpt lat="43.70237" lon="7.01186">
        <ele>240</ele>
        <time>2009-04-06T11:19:06Z</time>
      </trkpt>
      <trkpt lat="43.70228" lon="7.01225">
        <ele>241.4</ele>
        <time>2009-04-06T11:19:21Z</time>
      </trkpt>
      <trkpt lat="43.70222" lon="7.01263">
        <ele>243.4</ele>
        <time>2009-04-06T11:19:35Z</time>
      </trkpt>
      <trkpt lat="43.70222" lon="7.01306">
        <ele>245.8</ele>
        <time>2009-04-06T11:19:49Z</time>
      </trkpt>
      <trkpt lat="43.70223" lon="7.01344">
        <ele>247.2</ele>
        <time>2009-04-06T11:20:01Z</time>
      </trkpt>
      <trkpt lat="43.70229" lon="7.01385">
        <ele>245.8</ele>
        <time>2009-04-06T11:20:08Z</time>
      </trkpt>
      <trkpt lat="43.70232" lon="7.01426">
        <ele>245.3</ele>
        <time>2009-04-06T11:20:14Z</time>
      </trkpt>
      <trkpt lat="43.70234" lon="7.01464">
        <ele>249.6</ele>
        <time>2009-04-06T11:20:34Z</time>
      </trkpt>
      <trkpt lat="43.70235" lon="7.01504">
        <ele>255.8</ele>
        <time>2009-04-06T11:20:57Z</time>
      </trkpt>
      <trkpt lat="43.7022" lon="7.01559">
        <ele>264.5</ele>
        <time>2009-04-06T11:21:36Z</time>
      </trkpt>
      <trkpt lat="43.70209" lon="7.01598">
        <ele>265</ele>
        <time>2009-04-06T11:22:01Z</time>
      </trkpt>
      <trkpt lat="43.70193" lon="7.0163">
        <ele>264.5</ele>
        <time>2009-04-06T11:22:24Z</time>
      </trkpt>
      <trkpt lat="43.70178" lon="7.01665">
        <ele>269.3</ele>
        <time>2009-04-06T11:22:50Z</time>
      </trkpt>
      <trkpt lat="43.70186" lon="7.01706">
        <ele>275.1</ele>
        <time>2009-04-06T11:23:15Z</time>
      </trkpt>
      <trkpt lat="43.70209" lon="7.01703">
        <ele>274.6</ele>
        <time>2009-04-06T11:23:39Z</time>
      </trkpt>
      <trkpt lat="43.70233" lon="7.01672">
        <ele>276</ele>
        <time>2009-04-06T11:24:10Z</time>
      </trkpt>
      <trkpt lat="43.70256" lon="7.01677">
        <ele>283.2</ele>
        <time>2009-04-06T11:24:37Z</time>
      </trkpt>
      <trkpt lat="43.70277" lon="7.01705">
        <ele>290.5</ele>
        <time>2009-04-06T11:25:10Z</time>
      </trkpt>
      <trkpt lat="43.70312" lon="7.0168">
        <ele>296.2</ele>
        <time>2009-04-06T11:25:55Z</time>
      </trkpt>
      <trkpt lat="43.7032" lon="7.01718">
        <ele>298.6</ele>
        <time>2009-04-06T11:26:09Z</time>
      </trkpt>
      <trkpt lat="43.70347" lon="7.01732">
        <ele>302.5</ele>
        <time>2009-04-06T11:26:35Z</time>
      </trkpt>
      <trkpt lat="43.70357" lon="7.01772">
        <ele>310.6</ele>
        <time>2009-04-06T11:27:07Z</time>
      </trkpt>
      <trkpt lat="43.70383" lon="7.01763">
        <ele>315</ele>
        <time>2009-04-06T11:27:43Z</time>
      </trkpt>
      <trkpt lat="43.704" lon="7.01726">
        <ele>319.8</ele>
        <time>2009-04-06T11:28:06Z</time>
      </trkpt>
      <trkpt lat="43.70427" lon="7.01712">
        <ele>321.7</ele>
        <time>2009-04-06T11:28:26Z</time>
      </trkpt>
      <trkpt lat="43.70454" lon="7.017">
        <ele>328.4</ele>
        <time>2009-04-06T11:28:53Z</time>
      </trkpt>
      <trkpt lat="43.70466" lon="7.01679">
        <ele>331.3</ele>
        <time>2009-04-06T11:30:59Z</time>
      </trkpt>
      <trkpt lat="43.70487" lon="7.01707">
        <ele>332.8</ele>
        <time>2009-04-06T11:31:27Z</time>
      </trkpt>
      <trkpt lat="43.70509" lon="7.01733">
        <ele>336.1</ele>
        <time>2009-04-06T11:31:56Z</time>
      </trkpt>
      <trkpt lat="43.70531" lon="7.0176">
        <ele>340.9</ele>
        <time>2009-04-06T11:32:25Z</time>
      </trkpt>
      <trkpt lat="43.70553" lon="7.01784">
        <ele>343.8</ele>
        <time>2009-04-06T11:32:50Z</time>
      </trkpt>
      <trkpt lat="43.70573" lon="7.0181">
        <ele>350.1</ele>
        <time>2009-04-06T11:33:30Z</time>
      </trkpt>
      <trkpt lat="43.70577" lon="7.01851">
        <ele>353.9</ele>
        <time>2009-04-06T11:34:01Z</time>
      </trkpt>
      <trkpt lat="43.70586" lon="7.01891">
        <ele>360.6</ele>
        <time>2009-04-06T11:34:34Z</time>
      </trkpt>
      <trkpt lat="43.70611" lon="7.01866">
        <ele>364</ele>
        <time>2009-04-06T11:35:04Z</time>
      </trkpt>
      <trkpt lat="43.70627" lon="7.01837">
        <ele>367.4</ele>
        <time>2009-04-06T11:35:29Z</time>
      </trkpt>
      <trkpt lat="43.70641" lon="7.01807">
        <ele>371.2</ele>
        <time>2009-04-06T11:35:57Z</time>
      </trkpt>
      <trkpt lat="43.7066" lon="7.01771">
        <ele>376.5</ele>
        <time>2009-04-06T11:36:31Z</time>
      </trkpt>
      <trkpt lat="43.7068" lon="7.01738">
        <ele>378.4</ele>
        <time>2009-04-06T11:37:01Z</time>
      </trkpt>
      <trkpt lat="43.7069" lon="7.01705">
        <ele>385.1</ele>
        <time>2009-04-06T11:37:26Z</time>
      </trkpt>
      <trkpt lat="43.70703" lon="7.01666">
        <ele>386.6</ele>
        <time>2009-04-06T11:37:56Z</time>
      </trkpt>
      <trkpt lat="43.70712" lon="7.01601">
        <ele>391.9</ele>
        <time>2009-04-06T11:40:44Z</time>
      </trkpt>
      <trkpt lat="43.70727" lon="7.01551">
        <ele>403.9</ele>
        <time>2009-04-06T11:41:26Z</time>
      </trkpt>
      <trkpt lat="43.70745" lon="7.01495">
        <ele>410.6</ele>
        <time>2009-04-06T11:42:24Z</time>
      </trkpt>
      <trkpt lat="43.70756" lon="7.01454">
        <ele>422.6</ele>
        <time>2009-04-06T11:43:03Z</time>
      </trkpt>
      <trkpt lat="43.7078" lon="7.01417">
        <ele>425</ele>
        <time>2009-04-06T11:43:45Z</time>
      </trkpt>
      <trkpt lat="43.70799" lon="7.01407">
        <ele>424.6</ele>
        <time>2009-04-06T11:44:16Z</time>
      </trkpt>
      <trkpt lat="43.70799" lon="7.01448">
        <ele>431.3</ele>
        <time>2009-04-06T11:44:45Z</time>
      </trkpt>
      <trkpt lat="43.70804" lon="7.01487">
        <ele>437.5</ele>
        <time>2009-04-06T11:45:09Z</time>
      </trkpt>
      <trkpt lat="43.70811" lon="7.01526">
        <ele>444.3</ele>
        <time>2009-04-06T11:45:40Z</time>
      </trkpt>
      <trkpt lat="43.70817" lon="7.01569">
        <ele>449.1</ele>
        <time>2009-04-06T11:46:09Z</time>
      </trkpt>
      <trkpt lat="43.70832" lon="7.01607">
        <ele>451</ele>
        <time>2009-04-06T11:46:36Z</time>
      </trkpt>
      <trkpt lat="43.70853" lon="7.01633">
        <ele>449.6</ele>
        <time>2009-04-06T11:46:54Z</time>
      </trkpt>
      <trkpt lat="43.70873" lon="7.01659">
        <ele>452.9</ele>
        <time>2009-04-06T11:47:12Z</time>
      </trkpt>
      <trkpt lat="43.70889" lon="7.01687">
        <ele>456.3</ele>
        <time>2009-04-06T11:47:38Z</time>
      </trkpt>
      <trkpt lat="43.70901" lon="7.01723">
        <ele>463</ele>
        <time>2009-04-06T11:48:08Z</time>
      </trkpt>
      <trkpt lat="43.70913" lon="7.01708">
        <ele>464.5</ele>
        <time>2009-04-06T11:48:32Z</time>
      </trkpt>
      <trkpt lat="43.70911" lon="7.01671">
        <ele>467.8</ele>
        <time>2009-04-06T11:48:56Z</time>
      </trkpt>
      <trkpt lat="43.70916" lon="7.01636">
        <ele>468.8</ele>
        <time>2009-04-06T11:49:22Z</time>
      </trkpt>
      <trkpt lat="43.70906" lon="7.01601">
        <ele>476.5</ele>
        <time>2009-04-06T11:49:50Z</time>
      </trkpt>
      <trkpt lat="43.7092" lon="7.01605">
        <ele>482.2</ele>
        <time>2009-04-06T11:50:22Z</time>
      </trkpt>
      <trkpt lat="43.70933" lon="7.01639">
        <ele>485.6</ele>
        <time>2009-04-06T11:50:43Z</time>
      </trkpt>
      <trkpt lat="43.70947" lon="7.01672">
        <ele>491.9</ele>
        <time>2009-04-06T11:51:08Z</time>
      </trkpt>
      <trkpt lat="43.70962" lon="7.01706">
        <ele>497.1</ele>
        <time>2009-04-06T11:51:36Z</time>
      </trkpt>
      <trkpt lat="43.70974" lon="7.01741">
        <ele>501.5</ele>
        <time>2009-04-06T11:52:04Z</time>
      </trkpt>
      <trkpt lat="43.70977" lon="7.01714">
        <ele>502.9</ele>
        <time>2009-04-06T11:52:27Z</time>
      </trkpt>
      <trkpt lat="43.70972" lon="7.01676">
        <ele>505.3</ele>
        <time>2009-04-06T11:52:49Z</time>
      </trkpt>
      <trkpt lat="43.70971" lon="7.0164">
        <ele>509.6</ele>
        <time>2009-04-06T11:53:10Z</time>
      </trkpt>
      <trkpt lat="43.70968" lon="7.01602">
        <ele>514.9</ele>
        <time>2009-04-06T11:53:34Z</time>
      </trkpt>
      <trkpt lat="43.70966" lon="7.01564">
        <ele>521.2</ele>
        <time>2009-04-06T11:54:00Z</time>
      </trkpt>
      <trkpt lat="43.70963" lon="7.01527">
        <ele>523.6</ele>
        <time>2009-04-06T11:54:26Z</time>
      </trkpt>
      <trkpt lat="43.70965" lon="7.01488">
        <ele>526.9</ele>
        <time>2009-04-06T11:54:57Z</time>
      </trkpt>
      <trkpt lat="43.70983" lon="7.01514">
        <ele>529.8</ele>
        <time>2009-04-06T11:55:25Z</time>
      </trkpt>
      <trkpt lat="43.70993" lon="7.0155">
        <ele>537</ele>
        <time>2009-04-06T11:55:54Z</time>
      </trkpt>
      <trkpt lat="43.71009" lon="7.01583">
        <ele>541.4</ele>
        <time>2009-04-06T11:56:23Z</time>
      </trkpt>
      <trkpt lat="43.71028" lon="7.01617">
        <ele>541.4</ele>
        <time>2009-04-06T11:56:53Z</time>
      </trkpt>
      <trkpt lat="43.71043" lon="7.01655">
        <ele>549.5</ele>
        <time>2009-04-06T11:57:26Z</time>
      </trkpt>
      <trkpt lat="43.71051" lon="7.01694">
        <ele>556.3</ele>
        <time>2009-04-06T11:57:54Z</time>
      </trkpt>
      <trkpt lat="43.71064" lon="7.01711">
        <ele>558.2</ele>
        <time>2009-04-06T11:58:17Z</time>
      </trkpt>
      <trkpt lat="43.7106" lon="7.0167">
        <ele>561.1</ele>
        <time>2009-04-06T11:58:38Z</time>
      </trkpt>
      <trkpt lat="43.71061" lon="7.01632">
        <ele>566.8</ele>
        <time>2009-04-06T11:59:02Z</time>
      </trkpt>
      <trkpt lat="43.71058" lon="7.01591">
        <ele>569.2</ele>
        <time>2009-04-06T11:59:29Z</time>
      </trkpt>
      <trkpt lat="43.71054" lon="7.01554">
        <ele>571.6</ele>
        <time>2009-04-06T11:59:53Z</time>
      </trkpt>
      <trkpt lat="43.71057" lon="7.01517">
        <ele>577.9</ele>
        <time>2009-04-06T12:00:21Z</time>
      </trkpt>
      <trkpt lat="43.71059" lon="7.01474">
        <ele>585.6</ele>
        <time>2009-04-06T12:00:53Z</time>
      </trkpt>
      <trkpt lat="43.71068" lon="7.01434">
        <ele>588.5</ele>
        <time>2009-04-06T12:01:21Z</time>
      </trkpt>
      <trkpt lat="43.71084" lon="7.01398">
        <ele>589.4</ele>
        <time>2009-04-06T12:01:47Z</time>
      </trkpt>
      <trkpt lat="43.71099" lon="7.01362">
        <ele>592.3</ele>
        <time>2009-04-06T12:02:11Z</time>
      </trkpt>
      <trkpt lat="43.71114" lon="7.01316">
        <ele>600</ele>
        <time>2009-04-06T12:02:47Z</time>
      </trkpt>
      <trkpt lat="43.71129" lon="7.01275">
        <ele>608.7</ele>
        <time>2009-04-06T12:03:21Z</time>
      </trkpt>
      <trkpt lat="43.71151" lon="7.01246">
        <ele>621.6</ele>
        <time>2009-04-06T12:03:54Z</time>
      </trkpt>
      <trkpt lat="43.71169" lon="7.01216">
        <ele>619.7</ele>
        <time>2009-04-06T12:04:20Z</time>
      </trkpt>
      <trkpt lat="43.7116" lon="7.0118">
        <ele>620.7</ele>
        <time>2009-04-06T12:04:42Z</time>
      </trkpt>
      <trkpt lat="43.71163" lon="7.0114">
        <ele>623.6</ele>
        <time>2009-04-06T12:05:04Z</time>
      </trkpt>
      <trkpt lat="43.71158" lon="7.01164">
        <ele>621.6</ele>
        <time>2009-04-06T12:06:24Z</time>
      </trkpt>
      <trkpt lat="43.7117" lon="7.01202">
        <ele>618.7</ele>
        <time>2009-04-06T12:06:28Z</time>
      </trkpt>
      <trkpt lat="43.71161" lon="7.01241">
        <ele>614.4</ele>
        <time>2009-04-06T12:06:32Z</time>
      </trkpt>
      <trkpt lat="43.71133" lon="7.01273">
        <ele>605.8</ele>
        <time>2009-04-06T12:06:36Z</time>
      </trkpt>
      <trkpt lat="43.71114" lon="7.01313">
        <ele>602.9</ele>
        <time>2009-04-06T12:06:39Z</time>
      </trkpt>
      <trkpt lat="43.71095" lon="7.0136">
        <ele>600</ele>
        <time>2009-04-06T12:06:42Z</time>
      </trkpt>
      <trkpt lat="43.71075" lon="7.01406">
        <ele>596.2</ele>
        <time>2009-04-06T12:06:45Z</time>
      </trkpt>
      <trkpt lat="43.71063" lon="7.01448">
        <ele>590.9</ele>
        <time>2009-04-06T12:06:48Z</time>
      </trkpt>
      <trkpt lat="43.71058" lon="7.01496">
        <ele>581.7</ele>
        <time>2009-04-06T12:06:52Z</time>
      </trkpt>
      <trkpt lat="43.71055" lon="7.01536">
        <ele>575.5</ele>
        <time>2009-04-06T12:06:55Z</time>
      </trkpt>
      <trkpt lat="43.71057" lon="7.01584">
        <ele>570.7</ele>
        <time>2009-04-06T12:06:59Z</time>
      </trkpt>
      <trkpt lat="43.7106" lon="7.01627">
        <ele>566.4</ele>
        <time>2009-04-06T12:07:02Z</time>
      </trkpt>
      <trkpt lat="43.71059" lon="7.01675">
        <ele>561.5</ele>
        <time>2009-04-06T12:07:05Z</time>
      </trkpt>
      <trkpt lat="43.71062" lon="7.01716">
        <ele>558.7</ele>
        <time>2009-04-06T12:07:09Z</time>
      </trkpt>
      <trkpt lat="43.71049" lon="7.01683">
        <ele>552.4</ele>
        <time>2009-04-06T12:07:16Z</time>
      </trkpt>
      <trkpt lat="43.71035" lon="7.01632">
        <ele>545.7</ele>
        <time>2009-04-06T12:07:20Z</time>
      </trkpt>
      <trkpt lat="43.71014" lon="7.01591">
        <ele>538.5</ele>
        <time>2009-04-06T12:07:23Z</time>
      </trkpt>
      <trkpt lat="43.70994" lon="7.01547">
        <ele>533.7</ele>
        <time>2009-04-06T12:07:26Z</time>
      </trkpt>
      <trkpt lat="43.70983" lon="7.0151">
        <ele>529.8</ele>
        <time>2009-04-06T12:07:29Z</time>
      </trkpt>
      <trkpt lat="43.7097" lon="7.01477">
        <ele>526.5</ele>
        <time>2009-04-06T12:07:34Z</time>
      </trkpt>
      <trkpt lat="43.70963" lon="7.01514">
        <ele>522.6</ele>
        <time>2009-04-06T12:07:40Z</time>
      </trkpt>
      <trkpt lat="43.70966" lon="7.01553">
        <ele>516.4</ele>
        <time>2009-04-06T12:07:43Z</time>
      </trkpt>
      <trkpt lat="43.7097" lon="7.01599">
        <ele>510.1</ele>
        <time>2009-04-06T12:07:46Z</time>
      </trkpt>
      <trkpt lat="43.70974" lon="7.0165">
        <ele>504.3</ele>
        <time>2009-04-06T12:07:49Z</time>
      </trkpt>
      <trkpt lat="43.70975" lon="7.01691">
        <ele>501.5</ele>
        <time>2009-04-06T12:07:52Z</time>
      </trkpt>
      <trkpt lat="43.70982" lon="7.0173">
        <ele>499.5</ele>
        <time>2009-04-06T12:07:56Z</time>
      </trkpt>
      <trkpt lat="43.70966" lon="7.01721">
        <ele>497.1</ele>
        <time>2009-04-06T12:08:02Z</time>
      </trkpt>
      <trkpt lat="43.70948" lon="7.01674">
        <ele>491.4</ele>
        <time>2009-04-06T12:08:06Z</time>
      </trkpt>
      <trkpt lat="43.7093" lon="7.01628">
        <ele>484.6</ele>
        <time>2009-04-06T12:08:09Z</time>
      </trkpt>
      <trkpt lat="43.70916" lon="7.01594">
        <ele>481.8</ele>
        <time>2009-04-06T12:08:12Z</time>
      </trkpt>
      <trkpt lat="43.70906" lon="7.01601">
        <ele>479.4</ele>
        <time>2009-04-06T12:08:18Z</time>
      </trkpt>
      <trkpt lat="43.70911" lon="7.01648">
        <ele>474.1</ele>
        <time>2009-04-06T12:08:22Z</time>
      </trkpt>
      <trkpt lat="43.7091" lon="7.0169">
        <ele>469.7</ele>
        <time>2009-04-06T12:08:25Z</time>
      </trkpt>
      <trkpt lat="43.7091" lon="7.01728">
        <ele>464.5</ele>
        <time>2009-04-06T12:08:29Z</time>
      </trkpt>
      <trkpt lat="43.7089" lon="7.0169">
        <ele>456.8</ele>
        <time>2009-04-06T12:08:35Z</time>
      </trkpt>
      <trkpt lat="43.70869" lon="7.01654">
        <ele>452.4</ele>
        <time>2009-04-06T12:08:38Z</time>
      </trkpt>
      <trkpt lat="43.70843" lon="7.01622">
        <ele>450.5</ele>
        <time>2009-04-06T12:08:41Z</time>
      </trkpt>
      <trkpt lat="43.70823" lon="7.01588">
        <ele>446.7</ele>
        <time>2009-04-06T12:08:44Z</time>
      </trkpt>
      <trkpt lat="43.70817" lon="7.01544">
        <ele>442.3</ele>
        <time>2009-04-06T12:08:47Z</time>
      </trkpt>
      <trkpt lat="43.70808" lon="7.01495">
        <ele>439</ele>
        <time>2009-04-06T12:08:50Z</time>
      </trkpt>
      <trkpt lat="43.70801" lon="7.0145">
        <ele>434.7</ele>
        <time>2009-04-06T12:08:53Z</time>
      </trkpt>
      <trkpt lat="43.708" lon="7.01408">
        <ele>431.8</ele>
        <time>2009-04-06T12:08:57Z</time>
      </trkpt>
      <trkpt lat="43.70779" lon="7.01412">
        <ele>425.5</ele>
        <time>2009-04-06T12:09:03Z</time>
      </trkpt>
      <trkpt lat="43.7076" lon="7.01443">
        <ele>424.1</ele>
        <time>2009-04-06T12:09:07Z</time>
      </trkpt>
      <trkpt lat="43.70743" lon="7.01482">
        <ele>419.3</ele>
        <time>2009-04-06T12:09:10Z</time>
      </trkpt>
      <trkpt lat="43.7073" lon="7.01523">
        <ele>416.4</ele>
        <time>2009-04-06T12:09:13Z</time>
      </trkpt>
      <trkpt lat="43.70718" lon="7.01563">
        <ele>412.1</ele>
        <time>2009-04-06T12:09:16Z</time>
      </trkpt>
      <trkpt lat="43.70705" lon="7.01601">
        <ele>409.2</ele>
        <time>2009-04-06T12:09:19Z</time>
      </trkpt>
      <trkpt lat="43.70696" lon="7.01644">
        <ele>404.9</ele>
        <time>2009-04-06T12:09:22Z</time>
      </trkpt>
      <trkpt lat="43.70685" lon="7.01688">
        <ele>400</ele>
        <time>2009-04-06T12:09:25Z</time>
      </trkpt>
      <trkpt lat="43.70676" lon="7.01727">
        <ele>391.4</ele>
        <time>2009-04-06T12:09:28Z</time>
      </trkpt>
      <trkpt lat="43.7066" lon="7.01756">
        <ele>389</ele>
        <time>2009-04-06T12:09:32Z</time>
      </trkpt>
      <trkpt lat="43.70637" lon="7.01791">
        <ele>385.1</ele>
        <time>2009-04-06T12:09:36Z</time>
      </trkpt>
      <trkpt lat="43.70622" lon="7.01829">
        <ele>379.4</ele>
        <time>2009-04-06T12:09:39Z</time>
      </trkpt>
      <trkpt lat="43.70605" lon="7.0186">
        <ele>373.1</ele>
        <time>2009-04-06T12:09:42Z</time>
      </trkpt>
      <trkpt lat="43.70587" lon="7.0189">
        <ele>366.4</ele>
        <time>2009-04-06T12:09:46Z</time>
      </trkpt>
      <trkpt lat="43.70577" lon="7.01862">
        <ele>359.7</ele>
        <time>2009-04-06T12:09:52Z</time>
      </trkpt>
      <trkpt lat="43.70567" lon="7.01809">
        <ele>352.5</ele>
        <time>2009-04-06T12:09:56Z</time>
      </trkpt>
      <trkpt lat="43.70546" lon="7.01775">
        <ele>346.2</ele>
        <time>2009-04-06T12:09:59Z</time>
      </trkpt>
      <trkpt lat="43.7052" lon="7.01744">
        <ele>340</ele>
        <time>2009-04-06T12:10:02Z</time>
      </trkpt>
      <trkpt lat="43.70495" lon="7.01714">
        <ele>333.7</ele>
        <time>2009-04-06T12:10:05Z</time>
      </trkpt>
      <trkpt lat="43.70472" lon="7.01681">
        <ele>329.4</ele>
        <time>2009-04-06T12:10:09Z</time>
      </trkpt>
      <trkpt lat="43.70454" lon="7.0169">
        <ele>325.1</ele>
        <time>2009-04-06T12:10:17Z</time>
      </trkpt>
      <trkpt lat="43.70422" lon="7.01708">
        <ele>324.1</ele>
        <time>2009-04-06T12:10:22Z</time>
      </trkpt>
      <trkpt lat="43.70393" lon="7.01727">
        <ele>321.2</ele>
        <time>2009-04-06T12:10:26Z</time>
      </trkpt>
      <trkpt lat="43.70371" lon="7.01759">
        <ele>318.3</ele>
        <time>2009-04-06T12:10:30Z</time>
      </trkpt>
      <trkpt lat="43.70354" lon="7.01763">
        <ele>311.6</ele>
        <time>2009-04-06T12:10:36Z</time>
      </trkpt>
      <trkpt lat="43.7034" lon="7.01731">
        <ele>303.4</ele>
        <time>2009-04-06T12:10:41Z</time>
      </trkpt>
      <trkpt lat="43.70318" lon="7.01712">
        <ele>301.5</ele>
        <time>2009-04-06T12:10:52Z</time>
      </trkpt>
      <trkpt lat="43.70316" lon="7.01677">
        <ele>300.5</ele>
        <time>2009-04-06T12:11:01Z</time>
      </trkpt>
      <trkpt lat="43.70287" lon="7.01682">
        <ele>297.2</ele>
        <time>2009-04-06T12:11:07Z</time>
      </trkpt>
      <trkpt lat="43.70265" lon="7.0169">
        <ele>292.4</ele>
        <time>2009-04-06T12:11:13Z</time>
      </trkpt>
      <trkpt lat="43.70242" lon="7.01663">
        <ele>287.6</ele>
        <time>2009-04-06T12:11:18Z</time>
      </trkpt>
      <trkpt lat="43.70213" lon="7.01681">
        <ele>283.2</ele>
        <time>2009-04-06T12:11:22Z</time>
      </trkpt>
      <trkpt lat="43.70198" lon="7.01711">
        <ele>279.4</ele>
        <time>2009-04-06T12:11:27Z</time>
      </trkpt>
      <trkpt lat="43.7018" lon="7.01686">
        <ele>275.1</ele>
        <time>2009-04-06T12:11:32Z</time>
      </trkpt>
      <trkpt lat="43.70189" lon="7.01643">
        <ele>270.7</ele>
        <time>2009-04-06T12:11:37Z</time>
      </trkpt>
      <trkpt lat="43.70212" lon="7.01607">
        <ele>265.9</ele>
        <time>2009-04-06T12:11:41Z</time>
      </trkpt>
      <trkpt lat="43.70221" lon="7.01571">
        <ele>263.1</ele>
        <time>2009-04-06T12:11:44Z</time>
      </trkpt>
      <trkpt lat="43.70233" lon="7.01532">
        <ele>259.2</ele>
        <time>2009-04-06T12:11:47Z</time>
      </trkpt>
      <trkpt lat="43.70244" lon="7.01492">
        <ele>255.4</ele>
        <time>2009-04-06T12:11:51Z</time>
      </trkpt>
      <trkpt lat="43.70235" lon="7.01447">
        <ele>251.5</ele>
        <time>2009-04-06T12:11:55Z</time>
      </trkpt>
      <trkpt lat="43.70234" lon="7.01408">
        <ele>249.1</ele>
        <time>2009-04-06T12:11:58Z</time>
      </trkpt>
      <trkpt lat="43.70228" lon="7.01362">
        <ele>247.7</ele>
        <time>2009-04-06T12:12:02Z</time>
      </trkpt>
      <trkpt lat="43.70224" lon="7.01325">
        <ele>246.7</ele>
        <time>2009-04-06T12:12:07Z</time>
      </trkpt>
      <trkpt lat="43.70224" lon="7.01284">
        <ele>244.3</ele>
        <time>2009-04-06T12:12:13Z</time>
      </trkpt>
      <trkpt lat="43.70225" lon="7.01243">
        <ele>242.9</ele>
        <time>2009-04-06T12:12:18Z</time>
      </trkpt>
      <trkpt lat="43.70233" lon="7.01208">
        <ele>241.9</ele>
        <time>2009-04-06T12:12:22Z</time>
      </trkpt>
      <trkpt lat="43.70245" lon="7.01169">
        <ele>238.1</ele>
        <time>2009-04-06T12:12:26Z</time>
      </trkpt>
      <trkpt lat="43.7026" lon="7.01125">
        <ele>234.2</ele>
        <time>2009-04-06T12:12:30Z</time>
      </trkpt>
      <trkpt lat="43.70276" lon="7.01087">
        <ele>230.9</ele>
        <time>2009-04-06T12:12:34Z</time>
      </trkpt>
      <trkpt lat="43.703" lon="7.01062">
        <ele>228.5</ele>
        <time>2009-04-06T12:12:38Z</time>
      </trkpt>
      <trkpt lat="43.70314" lon="7.01027">
        <ele>225.6</ele>
        <time>2009-04-06T12:12:42Z</time>
      </trkpt>
      <trkpt lat="43.70319" lon="7.00994">
        <ele>225.1</ele>
        <time>2009-04-06T12:12:48Z</time>
      </trkpt>
      <trkpt lat="43.70292" lon="7.00973">
        <ele>225.6</ele>
        <time>2009-04-06T12:12:55Z</time>
      </trkpt>
      <trkpt lat="43.7027" lon="7.00943">
        <ele>224.6</ele>
        <time>2009-04-06T12:13:01Z</time>
      </trkpt>
      <trkpt lat="43.70256" lon="7.00911">
        <ele>224.1</ele>
        <time>2009-04-06T12:13:06Z</time>
      </trkpt>
      <trkpt lat="43.70246" lon="7.00873">
        <ele>220.8</ele>
        <time>2009-04-06T12:13:10Z</time>
      </trkpt>
      <trkpt lat="43.7023" lon="7.00833">
        <ele>215.5</ele>
        <time>2009-04-06T12:13:14Z</time>
      </trkpt>
      <trkpt lat="43.70217" lon="7.00795">
        <ele>208.3</ele>
        <time>2009-04-06T12:13:18Z</time>
      </trkpt>
      <trkpt lat="43.70214" lon="7.00755">
        <ele>202</ele>
        <time>2009-04-06T12:13:21Z</time>
      </trkpt>
      <trkpt lat="43.70214" lon="7.00711">
        <ele>200.1</ele>
        <time>2009-04-06T12:13:24Z</time>
      </trkpt>
      <trkpt lat="43.7021" lon="7.00667">
        <ele>197.2</ele>
        <time>2009-04-06T12:13:28Z</time>
      </trkpt>
      <trkpt lat="43.70213" lon="7.00627">
        <ele>192.4</ele>
        <time>2009-04-06T12:13:32Z</time>
      </trkpt>
      <trkpt lat="43.70216" lon="7.00584">
        <ele>185.7</ele>
        <time>2009-04-06T12:13:42Z</time>
      </trkpt>
      <trkpt lat="43.70228" lon="7.00549">
        <ele>179.9</ele>
        <time>2009-04-06T12:13:48Z</time>
      </trkpt>
      <trkpt lat="43.70244" lon="7.00515">
        <ele>178.5</ele>
        <time>2009-04-06T12:13:53Z</time>
      </trkpt>
      <trkpt lat="43.70264" lon="7.00484">
        <ele>176.1</ele>
        <time>2009-04-06T12:13:58Z</time>
      </trkpt>
      <trkpt lat="43.7025" lon="7.00438">
        <ele>170.3</ele>
        <time>2009-04-06T12:14:03Z</time>
      </trkpt>
      <trkpt lat="43.70236" lon="7.00395">
        <ele>166.9</ele>
        <time>2009-04-06T12:14:07Z</time>
      </trkpt>
      <trkpt lat="43.70234" lon="7.00346">
        <ele>162.6</ele>
        <time>2009-04-06T12:14:11Z</time>
      </trkpt>
      <trkpt lat="43.70241" lon="7.00306">
        <ele>157.8</ele>
        <time>2009-04-06T12:14:17Z</time>
      </trkpt>
      <trkpt lat="43.70262" lon="7.00277">
        <ele>155.9</ele>
        <time>2009-04-06T12:14:25Z</time>
      </trkpt>
      <trkpt lat="43.70287" lon="7.00259">
        <ele>156.8</ele>
        <time>2009-04-06T12:14:31Z</time>
      </trkpt>
      <trkpt lat="43.70313" lon="7.0024">
        <ele>156.8</ele>
        <time>2009-04-06T12:14:37Z</time>
      </trkpt>
      <trkpt lat="43.70332" lon="7.00205">
        <ele>155.4</ele>
        <time>2009-04-06T12:14:43Z</time>
      </trkpt>
      <trkpt lat="43.70346" lon="7.00164">
        <ele>153.5</ele>
        <time>2009-04-06T12:14:49Z</time>
      </trkpt>
      <trkpt lat="43.70359" lon="7.00129">
        <ele>152</ele>
        <time>2009-04-06T12:14:55Z</time>
      </trkpt>
      <trkpt lat="43.70378" lon="7.00097">
        <ele>151.1</ele>
        <time>2009-04-06T12:15:02Z</time>
      </trkpt>
      <trkpt lat="43.704" lon="7.0007">
        <ele>151.1</ele>
        <time>2009-04-06T12:15:11Z</time>
      </trkpt>
      <trkpt lat="43.7043" lon="7.00063">
        <ele>143.4</ele>
        <time>2009-04-06T12:15:16Z</time>
      </trkpt>
      <trkpt lat="43.70451" lon="7.00053">
        <ele>141.5</ele>
        <time>2009-04-06T12:15:23Z</time>
      </trkpt>
      <trkpt lat="43.70423" lon="7.00043">
        <ele>138.1</ele>
        <time>2009-04-06T12:15:28Z</time>
      </trkpt>
      <trkpt lat="43.70389" lon="7.0003">
        <ele>136.6</ele>
        <time>2009-04-06T12:15:33Z</time>
      </trkpt>
      <trkpt lat="43.70359" lon="7.00013">
        <ele>136.6</ele>
        <time>2009-04-06T12:15:37Z</time>
      </trkpt>
      <trkpt lat="43.70334" lon="6.99983">
        <ele>136.2</ele>
        <time>2009-04-06T12:15:41Z</time>
      </trkpt>
      <trkpt lat="43.7033" lon="6.99942">
        <ele>137.1</ele>
        <time>2009-04-06T12:15:46Z</time>
      </trkpt>
      <trkpt lat="43.7031" lon="6.99919">
        <ele>142.9</ele>
        <time>2009-04-06T12:15:56Z</time>
      </trkpt>
      <trkpt lat="43.70285" lon="6.99899">
        <ele>142.9</ele>
        <time>2009-04-06T12:16:08Z</time>
      </trkpt>
      <trkpt lat="43.70265" lon="6.9987">
        <ele>143.4</ele>
        <time>2009-04-06T12:16:20Z</time>
      </trkpt>
      <trkpt lat="43.70255" lon="6.99836">
        <ele>143.9</ele>
        <time>2009-04-06T12:16:30Z</time>
      </trkpt>
      <trkpt lat="43.70228" lon="6.99843">
        <ele>143.9</ele>
        <time>2009-04-06T12:16:38Z</time>
      </trkpt>
      <trkpt lat="43.70199" lon="6.99866">
        <ele>145.3</ele>
        <time>2009-04-06T12:16:44Z</time>
      </trkpt>
      <trkpt lat="43.70169" lon="6.99878">
        <ele>144.3</ele>
        <time>2009-04-06T12:16:50Z</time>
      </trkpt>
      <trkpt lat="43.70142" lon="6.99886">
        <ele>143.9</ele>
        <time>2009-04-06T12:16:55Z</time>
      </trkpt>
      <trkpt lat="43.70114" lon="6.99893">
        <ele>143.9</ele>
        <time>2009-04-06T12:17:00Z</time>
      </trkpt>
      <trkpt lat="43.70087" lon="6.99908">
        <ele>143.4</ele>
        <time>2009-04-06T12:17:06Z</time>
      </trkpt>
      <trkpt lat="43.70053" lon="6.99917">
        <ele>143.9</ele>
        <time>2009-04-06T12:17:12Z</time>
      </trkpt>
      <trkpt lat="43.7002" lon="6.99913">
        <ele>143.4</ele>
        <time>2009-04-06T12:17:18Z</time>
      </trkpt>
      <trkpt lat="43.69991" lon="6.99896">
        <ele>142.4</ele>
        <time>2009-04-06T12:17:24Z</time>
      </trkpt>
      <trkpt lat="43.69957" lon="6.99889">
        <ele>142.4</ele>
        <time>2009-04-06T12:17:30Z</time>
      </trkpt>
      <trkpt lat="43.69925" lon="6.99898">
        <ele>142.4</ele>
        <time>2009-04-06T12:17:36Z</time>
      </trkpt>
      <trkpt lat="43.69897" lon="6.99909">
        <ele>142.4</ele>
        <time>2009-04-06T12:17:42Z</time>
      </trkpt>
      <trkpt lat="43.69868" lon="6.9992">
        <ele>144.8</ele>
        <time>2009-04-06T12:17:49Z</time>
      </trkpt>
      <trkpt lat="43.69841" lon="6.99926">
        <ele>144.8</ele>
        <time>2009-04-06T12:17:56Z</time>
      </trkpt>
      <trkpt lat="43.69814" lon="6.99917">
        <ele>145.3</ele>
        <time>2009-04-06T12:18:05Z</time>
      </trkpt>
      <trkpt lat="43.69785" lon="6.99905">
        <ele>147.2</ele>
        <time>2009-04-06T12:18:18Z</time>
      </trkpt>
      <trkpt lat="43.69757" lon="6.99882">
        <ele>150.6</ele>
        <time>2009-04-06T12:18:34Z</time>
      </trkpt>
      <trkpt lat="43.69738" lon="6.99854">
        <ele>151.1</ele>
        <time>2009-04-06T12:18:47Z</time>
      </trkpt>
      <trkpt lat="43.69708" lon="6.99839">
        <ele>152</ele>
        <time>2009-04-06T12:18:57Z</time>
      </trkpt>
      <trkpt lat="43.69679" lon="6.99833">
        <ele>152.5</ele>
        <time>2009-04-06T12:19:05Z</time>
      </trkpt>
      <trkpt lat="43.69654" lon="6.99807">
        <ele>149.6</ele>
        <time>2009-04-06T12:19:12Z</time>
      </trkpt>
      <trkpt lat="43.6964" lon="6.99775">
        <ele>150.1</ele>
        <time>2009-04-06T12:19:18Z</time>
      </trkpt>
      <trkpt lat="43.69628" lon="6.99737">
        <ele>151.1</ele>
        <time>2009-04-06T12:19:26Z</time>
      </trkpt>
      <trkpt lat="43.69619" lon="6.99697">
        <ele>152.5</ele>
        <time>2009-04-06T12:19:38Z</time>
      </trkpt>
      <trkpt lat="43.69612" lon="6.99659">
        <ele>155.4</ele>
        <time>2009-04-06T12:19:48Z</time>
      </trkpt>
      <trkpt lat="43.69604" lon="6.9962">
        <ele>157.3</ele>
        <time>2009-04-06T12:19:58Z</time>
      </trkpt>
      <trkpt lat="43.69593" lon="6.99582">
        <ele>158.3</ele>
        <time>2009-04-06T12:20:08Z</time>
      </trkpt>
      <trkpt lat="43.69582" lon="6.99545">
        <ele>160.7</ele>
        <time>2009-04-06T12:20:18Z</time>
      </trkpt>
      <trkpt lat="43.69573" lon="6.99507">
        <ele>163.6</ele>
        <time>2009-04-06T12:20:28Z</time>
      </trkpt>
      <trkpt lat="43.69549" lon="6.99488">
        <ele>166.9</ele>
        <time>2009-04-06T12:20:38Z</time>
      </trkpt>
      <trkpt lat="43.69521" lon="6.99482">
        <ele>167.4</ele>
        <time>2009-04-06T12:20:47Z</time>
      </trkpt>
      <trkpt lat="43.69498" lon="6.9946">
        <ele>168.4</ele>
        <time>2009-04-06T12:20:57Z</time>
      </trkpt>
      <trkpt lat="43.69475" lon="6.99434">
        <ele>166.9</ele>
        <time>2009-04-06T12:21:07Z</time>
      </trkpt>
      <trkpt lat="43.69444" lon="6.99423">
        <ele>167.9</ele>
        <time>2009-04-06T12:21:20Z</time>
      </trkpt>
      <trkpt lat="43.69417" lon="6.9942">
        <ele>172.2</ele>
        <time>2009-04-06T12:21:34Z</time>
      </trkpt>
      <trkpt lat="43.69392" lon="6.99393">
        <ele>173.7</ele>
        <time>2009-04-06T12:21:51Z</time>
      </trkpt>
      <trkpt lat="43.69368" lon="6.99372">
        <ele>175.1</ele>
        <time>2009-04-06T12:22:09Z</time>
      </trkpt>
      <trkpt lat="43.69344" lon="6.99354">
        <ele>179.4</ele>
        <time>2009-04-06T12:22:23Z</time>
      </trkpt>
      <trkpt lat="43.69322" lon="6.99325">
        <ele>181.3</ele>
        <time>2009-04-06T12:22:37Z</time>
      </trkpt>
      <trkpt lat="43.69303" lon="6.99295">
        <ele>183.7</ele>
        <time>2009-04-06T12:22:51Z</time>
      </trkpt>
      <trkpt lat="43.6929" lon="6.99262">
        <ele>187.6</ele>
        <time>2009-04-06T12:23:11Z</time>
      </trkpt>
      <trkpt lat="43.69276" lon="6.99222">
        <ele>191.9</ele>
        <time>2009-04-06T12:23:32Z</time>
      </trkpt>
      <trkpt lat="43.69252" lon="6.99191">
        <ele>195.8</ele>
        <time>2009-04-06T12:23:51Z</time>
      </trkpt>
      <trkpt lat="43.69232" lon="6.99156">
        <ele>195.3</ele>
        <time>2009-04-06T12:24:10Z</time>
      </trkpt>
      <trkpt lat="43.69213" lon="6.99123">
        <ele>201.5</ele>
        <time>2009-04-06T12:24:28Z</time>
      </trkpt>
      <trkpt lat="43.69194" lon="6.99093">
        <ele>206.3</ele>
        <time>2009-04-06T12:24:44Z</time>
      </trkpt>
      <trkpt lat="43.69175" lon="6.99065">
        <ele>209.2</ele>
        <time>2009-04-06T12:24:59Z</time>
      </trkpt>
      <trkpt lat="43.69156" lon="6.99039">
        <ele>210.7</ele>
        <time>2009-04-06T12:25:13Z</time>
      </trkpt>
      <trkpt lat="43.69131" lon="6.99022">
        <ele>214</ele>
        <time>2009-04-06T12:25:28Z</time>
      </trkpt>
      <trkpt lat="43.69103" lon="6.99">
        <ele>216.4</ele>
        <time>2009-04-06T12:25:52Z</time>
      </trkpt>
      <trkpt lat="43.6908" lon="6.98971">
        <ele>217.9</ele>
        <time>2009-04-06T12:26:14Z</time>
      </trkpt>
      <trkpt lat="43.69061" lon="6.98942">
        <ele>221.7</ele>
        <time>2009-04-06T12:26:37Z</time>
      </trkpt>
      <trkpt lat="43.69043" lon="6.98912">
        <ele>227.5</ele>
        <time>2009-04-06T12:26:54Z</time>
      </trkpt>
      <trkpt lat="43.69028" lon="6.98883">
        <ele>229.9</ele>
        <time>2009-04-06T12:27:05Z</time>
      </trkpt>
      <trkpt lat="43.69009" lon="6.98849">
        <ele>229.4</ele>
        <time>2009-04-06T12:27:15Z</time>
      </trkpt>
      <trkpt lat="43.68989" lon="6.98823">
        <ele>228.9</ele>
        <time>2009-04-06T12:27:23Z</time>
      </trkpt>
      <trkpt lat="43.68976" lon="6.98789">
        <ele>230.4</ele>
        <time>2009-04-06T12:27:34Z</time>
      </trkpt>
      <trkpt lat="43.68971" lon="6.9875">
        <ele>233.3</ele>
        <time>2009-04-06T12:27:49Z</time>
      </trkpt>
      <trkpt lat="43.68955" lon="6.98706">
        <ele>238.1</ele>
        <time>2009-04-06T12:28:06Z</time>
      </trkpt>
      <trkpt lat="43.6894" lon="6.98664">
        <ele>248.2</ele>
        <time>2009-04-06T12:28:21Z</time>
      </trkpt>
      <trkpt lat="43.6893" lon="6.98623">
        <ele>251</ele>
        <time>2009-04-06T12:28:32Z</time>
      </trkpt>
      <trkpt lat="43.68918" lon="6.98585">
        <ele>246.7</ele>
        <time>2009-04-06T12:28:45Z</time>
      </trkpt>
      <trkpt lat="43.689" lon="6.98557">
        <ele>248.6</ele>
        <time>2009-04-06T12:28:59Z</time>
      </trkpt>
      <trkpt lat="43.68882" lon="6.98521">
        <ele>250.6</ele>
        <time>2009-04-06T12:29:15Z</time>
      </trkpt>
      <trkpt lat="43.68864" lon="6.98486">
        <ele>253</ele>
        <time>2009-04-06T12:29:32Z</time>
      </trkpt>
      <trkpt lat="43.68847" lon="6.98452">
        <ele>257.8</ele>
        <time>2009-04-06T12:29:50Z</time>
      </trkpt>
      <trkpt lat="43.68833" lon="6.98409">
        <ele>264.5</ele>
        <time>2009-04-06T12:30:10Z</time>
      </trkpt>
      <trkpt lat="43.68815" lon="6.98372">
        <ele>273.2</ele>
        <time>2009-04-06T12:30:31Z</time>
      </trkpt>
      <trkpt lat="43.68796" lon="6.98335">
        <ele>280.8</ele>
        <time>2009-04-06T12:30:52Z</time>
      </trkpt>
      <trkpt lat="43.68777" lon="6.98301">
        <ele>284.7</ele>
        <time>2009-04-06T12:31:08Z</time>
      </trkpt>
      <trkpt lat="43.68758" lon="6.98269">
        <ele>291.4</ele>
        <time>2009-04-06T12:31:22Z</time>
      </trkpt>
      <trkpt lat="43.68735" lon="6.98245">
        <ele>292.9</ele>
        <time>2009-04-06T12:31:38Z</time>
      </trkpt>
      <trkpt lat="43.68705" lon="6.9823">
        <ele>294.3</ele>
        <time>2009-04-06T12:31:59Z</time>
      </trkpt>
      <trkpt lat="43.68678" lon="6.98229">
        <ele>291.9</ele>
        <time>2009-04-06T12:32:18Z</time>
      </trkpt>
      <trkpt lat="43.68658" lon="6.98211">
        <ele>293.8</ele>
        <time>2009-04-06T12:32:38Z</time>
      </trkpt>
      <trkpt lat="43.68674" lon="6.98173">
        <ele>297.7</ele>
        <time>2009-04-06T12:33:00Z</time>
      </trkpt>
      <trkpt lat="43.68667" lon="6.98129">
        <ele>299.6</ele>
        <time>2009-04-06T12:33:22Z</time>
      </trkpt>
      <trkpt lat="43.6865" lon="6.98096">
        <ele>304.4</ele>
        <time>2009-04-06T12:33:46Z</time>
      </trkpt>
      <trkpt lat="43.68628" lon="6.98073">
        <ele>308.7</ele>
        <time>2009-04-06T12:34:07Z</time>
      </trkpt>
      <trkpt lat="43.68635" lon="6.98063">
        <ele>315.4</ele>
        <time>2009-04-06T12:34:27Z</time>
      </trkpt>
      <trkpt lat="43.68661" lon="6.98074">
        <ele>318.3</ele>
        <time>2009-04-06T12:34:41Z</time>
      </trkpt>
      <trkpt lat="43.68689" lon="6.98081">
        <ele>320.7</ele>
        <time>2009-04-06T12:34:55Z</time>
      </trkpt>
      <trkpt lat="43.68718" lon="6.98082">
        <ele>321.7</ele>
        <time>2009-04-06T12:35:08Z</time>
      </trkpt>
      <trkpt lat="43.68745" lon="6.98088">
        <ele>326</ele>
        <time>2009-04-06T12:35:24Z</time>
      </trkpt>
      <trkpt lat="43.68773" lon="6.98092">
        <ele>329.9</ele>
        <time>2009-04-06T12:35:41Z</time>
      </trkpt>
      <trkpt lat="43.68772" lon="6.98065">
        <ele>331.3</ele>
        <time>2009-04-06T12:36:01Z</time>
      </trkpt>
      <trkpt lat="43.68746" lon="6.98043">
        <ele>334.2</ele>
        <time>2009-04-06T12:36:19Z</time>
      </trkpt>
      <trkpt lat="43.68717" lon="6.98031">
        <ele>337.6</ele>
        <time>2009-04-06T12:36:37Z</time>
      </trkpt>
      <trkpt lat="43.68693" lon="6.98014">
        <ele>341.9</ele>
        <time>2009-04-06T12:36:53Z</time>
      </trkpt>
      <trkpt lat="43.68669" lon="6.9799">
        <ele>345.3</ele>
        <time>2009-04-06T12:37:13Z</time>
      </trkpt>
      <trkpt lat="43.68642" lon="6.97967">
        <ele>345.7</ele>
        <time>2009-04-06T12:37:32Z</time>
      </trkpt>
      <trkpt lat="43.68618" lon="6.9795">
        <ele>349.1</ele>
        <time>2009-04-06T12:37:48Z</time>
      </trkpt>
      <trkpt lat="43.68592" lon="6.9793">
        <ele>352.9</ele>
        <time>2009-04-06T12:38:02Z</time>
      </trkpt>
      <trkpt lat="43.68559" lon="6.97917">
        <ele>360.6</ele>
        <time>2009-04-06T12:38:16Z</time>
      </trkpt>
      <trkpt lat="43.68536" lon="6.97897">
        <ele>362.1</ele>
        <time>2009-04-06T12:38:32Z</time>
      </trkpt>
      <trkpt lat="43.68523" lon="6.97862">
        <ele>361.1</ele>
        <time>2009-04-06T12:38:45Z</time>
      </trkpt>
      <trkpt lat="43.68517" lon="6.97826">
        <ele>367.8</ele>
        <time>2009-04-06T12:39:00Z</time>
      </trkpt>
      <trkpt lat="43.68496" lon="6.97801">
        <ele>371.2</ele>
        <time>2009-04-06T12:39:14Z</time>
      </trkpt>
      <trkpt lat="43.68476" lon="6.97766">
        <ele>372.6</ele>
        <time>2009-04-06T12:39:34Z</time>
      </trkpt>
      <trkpt lat="43.68461" lon="6.97725">
        <ele>373.6</ele>
        <time>2009-04-06T12:39:54Z</time>
      </trkpt>
      <trkpt lat="43.68437" lon="6.97706">
        <ele>376</ele>
        <time>2009-04-06T12:40:12Z</time>
      </trkpt>
      <trkpt lat="43.68414" lon="6.97679">
        <ele>381.8</ele>
        <time>2009-04-06T12:40:33Z</time>
      </trkpt>
      <trkpt lat="43.68402" lon="6.97643">
        <ele>384.2</ele>
        <time>2009-04-06T12:40:49Z</time>
      </trkpt>
      <trkpt lat="43.68379" lon="6.97617">
        <ele>387.5</ele>
        <time>2009-04-06T12:41:08Z</time>
      </trkpt>
      <trkpt lat="43.68354" lon="6.97601">
        <ele>391.9</ele>
        <time>2009-04-06T12:41:27Z</time>
      </trkpt>
      <trkpt lat="43.68327" lon="6.97557">
        <ele>398.1</ele>
        <time>2009-04-06T12:41:53Z</time>
      </trkpt>
      <trkpt lat="43.68308" lon="6.97527">
        <ele>397.2</ele>
        <time>2009-04-06T12:42:02Z</time>
      </trkpt>
      <trkpt lat="43.68288" lon="6.97495">
        <ele>397.6</ele>
        <time>2009-04-06T12:42:10Z</time>
      </trkpt>
      <trkpt lat="43.68276" lon="6.9746">
        <ele>402.9</ele>
        <time>2009-04-06T12:42:18Z</time>
      </trkpt>
      <trkpt lat="43.68269" lon="6.97421">
        <ele>403.9</ele>
        <time>2009-04-06T12:42:26Z</time>
      </trkpt>
      <trkpt lat="43.68256" lon="6.97385">
        <ele>403.4</ele>
        <time>2009-04-06T12:42:34Z</time>
      </trkpt>
      <trkpt lat="43.68236" lon="6.97351">
        <ele>401.5</ele>
        <time>2009-04-06T12:42:42Z</time>
      </trkpt>
      <trkpt lat="43.68225" lon="6.97314">
        <ele>402</ele>
        <time>2009-04-06T12:42:50Z</time>
      </trkpt>
      <trkpt lat="43.68212" lon="6.97277">
        <ele>404.9</ele>
        <time>2009-04-06T12:42:58Z</time>
      </trkpt>
      <trkpt lat="43.68199" lon="6.97239">
        <ele>407.7</ele>
        <time>2009-04-06T12:43:06Z</time>
      </trkpt>
      <trkpt lat="43.68186" lon="6.97203">
        <ele>410.1</ele>
        <time>2009-04-06T12:43:14Z</time>
      </trkpt>
      <trkpt lat="43.68165" lon="6.97176">
        <ele>408.7</ele>
        <time>2009-04-06T12:43:23Z</time>
      </trkpt>
      <trkpt lat="43.68134" lon="6.97181">
        <ele>410.1</ele>
        <time>2009-04-06T12:43:31Z</time>
      </trkpt>
      <trkpt lat="43.68106" lon="6.97191">
        <ele>411.6</ele>
        <time>2009-04-06T12:43:39Z</time>
      </trkpt>
      <trkpt lat="43.68082" lon="6.97173">
        <ele>407.7</ele>
        <time>2009-04-06T12:43:47Z</time>
      </trkpt>
      <trkpt lat="43.6806" lon="6.97146">
        <ele>404.9</ele>
        <time>2009-04-06T12:43:54Z</time>
      </trkpt>
      <trkpt lat="43.68031" lon="6.97146">
        <ele>402.9</ele>
        <time>2009-04-06T12:44:00Z</time>
      </trkpt>
      <trkpt lat="43.68007" lon="6.97179">
        <ele>401.5</ele>
        <time>2009-04-06T12:44:05Z</time>
      </trkpt>
      <trkpt lat="43.67987" lon="6.97206">
        <ele>400.5</ele>
        <time>2009-04-06T12:44:09Z</time>
      </trkpt>
      <trkpt lat="43.67967" lon="6.97236">
        <ele>399.1</ele>
        <time>2009-04-06T12:44:13Z</time>
      </trkpt>
      <trkpt lat="43.67945" lon="6.97265">
        <ele>398.1</ele>
        <time>2009-04-06T12:44:17Z</time>
      </trkpt>
      <trkpt lat="43.67923" lon="6.97291">
        <ele>397.6</ele>
        <time>2009-04-06T12:44:21Z</time>
      </trkpt>
      <trkpt lat="43.67895" lon="6.97306">
        <ele>398.1</ele>
        <time>2009-04-06T12:44:26Z</time>
      </trkpt>
      <trkpt lat="43.6787" lon="6.97332">
        <ele>401</ele>
        <time>2009-04-06T12:44:31Z</time>
      </trkpt>
      <trkpt lat="43.67858" lon="6.97366">
        <ele>399.1</ele>
        <time>2009-04-06T12:44:36Z</time>
      </trkpt>
      <trkpt lat="43.67841" lon="6.974">
        <ele>397.2</ele>
        <time>2009-04-06T12:44:41Z</time>
      </trkpt>
      <trkpt lat="43.67813" lon="6.9742">
        <ele>397.2</ele>
        <time>2009-04-06T12:44:46Z</time>
      </trkpt>
      <trkpt lat="43.67782" lon="6.97437">
        <ele>395.2</ele>
        <time>2009-04-06T12:44:51Z</time>
      </trkpt>
      <trkpt lat="43.67754" lon="6.97442">
        <ele>394.3</ele>
        <time>2009-04-06T12:44:56Z</time>
      </trkpt>
      <trkpt lat="43.67725" lon="6.97458">
        <ele>394.3</ele>
        <time>2009-04-06T12:45:02Z</time>
      </trkpt>
      <trkpt lat="43.67698" lon="6.97473">
        <ele>392.4</ele>
        <time>2009-04-06T12:45:06Z</time>
      </trkpt>
      <trkpt lat="43.67671" lon="6.9749">
        <ele>392.4</ele>
        <time>2009-04-06T12:45:10Z</time>
      </trkpt>
      <trkpt lat="43.67647" lon="6.97509">
        <ele>391.4</ele>
        <time>2009-04-06T12:45:14Z</time>
      </trkpt>
      <trkpt lat="43.67631" lon="6.97539">
        <ele>390.4</ele>
        <time>2009-04-06T12:45:18Z</time>
      </trkpt>
      <trkpt lat="43.67619" lon="6.97572">
        <ele>390</ele>
        <time>2009-04-06T12:45:22Z</time>
      </trkpt>
      <trkpt lat="43.67603" lon="6.9761">
        <ele>389</ele>
        <time>2009-04-06T12:45:27Z</time>
      </trkpt>
      <trkpt lat="43.67585" lon="6.97641">
        <ele>390</ele>
        <time>2009-04-06T12:45:32Z</time>
      </trkpt>
      <trkpt lat="43.67561" lon="6.97666">
        <ele>390</ele>
        <time>2009-04-06T12:45:37Z</time>
      </trkpt>
      <trkpt lat="43.6754" lon="6.97696">
        <ele>390</ele>
        <time>2009-04-06T12:45:41Z</time>
      </trkpt>
      <trkpt lat="43.67522" lon="6.97734">
        <ele>386.1</ele>
        <time>2009-04-06T12:45:45Z</time>
      </trkpt>
      <trkpt lat="43.67499" lon="6.97756">
        <ele>382.7</ele>
        <time>2009-04-06T12:45:48Z</time>
      </trkpt>
      <trkpt lat="43.67474" lon="6.97776">
        <ele>382.7</ele>
        <time>2009-04-06T12:45:51Z</time>
      </trkpt>
      <trkpt lat="43.67448" lon="6.97805">
        <ele>381.3</ele>
        <time>2009-04-06T12:45:55Z</time>
      </trkpt>
      <trkpt lat="43.67457" lon="6.97836">
        <ele>380.3</ele>
        <time>2009-04-06T12:45:59Z</time>
      </trkpt>
      <trkpt lat="43.67484" lon="6.97818">
        <ele>377.5</ele>
        <time>2009-04-06T12:46:03Z</time>
      </trkpt>
      <trkpt lat="43.67514" lon="6.97787">
        <ele>374.6</ele>
        <time>2009-04-06T12:46:07Z</time>
      </trkpt>
      <trkpt lat="43.67543" lon="6.97767">
        <ele>371.7</ele>
        <time>2009-04-06T12:46:10Z</time>
      </trkpt>
      <trkpt lat="43.67574" lon="6.97746">
        <ele>367.4</ele>
        <time>2009-04-06T12:46:13Z</time>
      </trkpt>
      <trkpt lat="43.67599" lon="6.97727">
        <ele>365</ele>
        <time>2009-04-06T12:46:16Z</time>
      </trkpt>
      <trkpt lat="43.67628" lon="6.97712">
        <ele>363.5</ele>
        <time>2009-04-06T12:46:20Z</time>
      </trkpt>
      <trkpt lat="43.67632" lon="6.97748">
        <ele>362.6</ele>
        <time>2009-04-06T12:46:25Z</time>
      </trkpt>
      <trkpt lat="43.67606" lon="6.9778">
        <ele>360.2</ele>
        <time>2009-04-06T12:46:29Z</time>
      </trkpt>
      <trkpt lat="43.67586" lon="6.97816">
        <ele>355.8</ele>
        <time>2009-04-06T12:46:32Z</time>
      </trkpt>
      <trkpt lat="43.67567" lon="6.97856">
        <ele>353.4</ele>
        <time>2009-04-06T12:46:35Z</time>
      </trkpt>
      <trkpt lat="43.67546" lon="6.97895">
        <ele>350.1</ele>
        <time>2009-04-06T12:46:38Z</time>
      </trkpt>
      <trkpt lat="43.67519" lon="6.97927">
        <ele>347.7</ele>
        <time>2009-04-06T12:46:41Z</time>
      </trkpt>
      <trkpt lat="43.67488" lon="6.9796">
        <ele>344.8</ele>
        <time>2009-04-06T12:46:44Z</time>
      </trkpt>
      <trkpt lat="43.67454" lon="6.97991">
        <ele>341.9</ele>
        <time>2009-04-06T12:46:47Z</time>
      </trkpt>
      <trkpt lat="43.67422" lon="6.98027">
        <ele>339.5</ele>
        <time>2009-04-06T12:46:50Z</time>
      </trkpt>
      <trkpt lat="43.67402" lon="6.98053">
        <ele>337.6</ele>
        <time>2009-04-06T12:46:52Z</time>
      </trkpt>
      <trkpt lat="43.67381" lon="6.9808">
        <ele>335.2</ele>
        <time>2009-04-06T12:46:54Z</time>
      </trkpt>
      <trkpt lat="43.67358" lon="6.98107">
        <ele>333.2</ele>
        <time>2009-04-06T12:46:56Z</time>
      </trkpt>
      <trkpt lat="43.67331" lon="6.98132">
        <ele>331.8</ele>
        <time>2009-04-06T12:46:58Z</time>
      </trkpt>
      <trkpt lat="43.67302" lon="6.98155">
        <ele>328.9</ele>
        <time>2009-04-06T12:47:00Z</time>
      </trkpt>
      <trkpt lat="43.67275" lon="6.98178">
        <ele>326.5</ele>
        <time>2009-04-06T12:47:02Z</time>
      </trkpt>
      <trkpt lat="43.67248" lon="6.98201">
        <ele>323.1</ele>
        <time>2009-04-06T12:47:04Z</time>
      </trkpt>
      <trkpt lat="43.67224" lon="6.98229">
        <ele>317.9</ele>
        <time>2009-04-06T12:47:06Z</time>
      </trkpt>
      <trkpt lat="43.67202" lon="6.98256">
        <ele>310.2</ele>
        <time>2009-04-06T12:47:08Z</time>
      </trkpt>
      <trkpt lat="43.67176" lon="6.98281">
        <ele>303.9</ele>
        <time>2009-04-06T12:47:10Z</time>
      </trkpt>
      <trkpt lat="43.67147" lon="6.98301">
        <ele>297.7</ele>
        <time>2009-04-06T12:47:12Z</time>
      </trkpt>
      <trkpt lat="43.67118" lon="6.98318">
        <ele>290</ele>
        <time>2009-04-06T12:47:14Z</time>
      </trkpt>
      <trkpt lat="43.67088" lon="6.98336">
        <ele>283.2</ele>
        <time>2009-04-06T12:47:16Z</time>
      </trkpt>
      <trkpt lat="43.67057" lon="6.98355">
        <ele>278</ele>
        <time>2009-04-06T12:47:18Z</time>
      </trkpt>
      <trkpt lat="43.67027" lon="6.98371">
        <ele>273.2</ele>
        <time>2009-04-06T12:47:20Z</time>
      </trkpt>
      <trkpt lat="43.66997" lon="6.98391">
        <ele>270.7</ele>
        <time>2009-04-06T12:47:22Z</time>
      </trkpt>
      <trkpt lat="43.66973" lon="6.98415">
        <ele>269.3</ele>
        <time>2009-04-06T12:47:24Z</time>
      </trkpt>
      <trkpt lat="43.6694" lon="6.98442">
        <ele>265.9</ele>
        <time>2009-04-06T12:47:27Z</time>
      </trkpt>
      <trkpt lat="43.66905" lon="6.98448">
        <ele>260.2</ele>
        <time>2009-04-06T12:47:30Z</time>
      </trkpt>
      <trkpt lat="43.66871" lon="6.98452">
        <ele>257.3</ele>
        <time>2009-04-06T12:47:33Z</time>
      </trkpt>
      <trkpt lat="43.66844" lon="6.98455">
        <ele>254.9</ele>
        <time>2009-04-06T12:47:36Z</time>
      </trkpt>
      <trkpt lat="43.66815" lon="6.98441">
        <ele>252</ele>
        <time>2009-04-06T12:47:41Z</time>
      </trkpt>
      <trkpt lat="43.66788" lon="6.98458">
        <ele>249.1</ele>
        <time>2009-04-06T12:47:46Z</time>
      </trkpt>
      <trkpt lat="43.66788" lon="6.98497">
        <ele>250.1</ele>
        <time>2009-04-06T12:47:52Z</time>
      </trkpt>
      <trkpt lat="43.6679" lon="6.98516">
        <ele>252.5</ele>
        <time>2009-04-06T12:48:04Z</time>
      </trkpt>
      <trkpt lat="43.66811" lon="6.98489">
        <ele>255.8</ele>
        <time>2009-04-06T12:48:12Z</time>
      </trkpt>
      <trkpt lat="43.66832" lon="6.98464">
        <ele>255.8</ele>
        <time>2009-04-06T12:48:19Z</time>
      </trkpt>
      <trkpt lat="43.66817" lon="6.98439">
        <ele>253.9</ele>
        <time>2009-04-06T12:48:26Z</time>
      </trkpt>
      <trkpt lat="43.66788" lon="6.98453">
        <ele>251.5</ele>
        <time>2009-04-06T12:48:32Z</time>
      </trkpt>
      <trkpt lat="43.66762" lon="6.98459">
        <ele>250.1</ele>
        <time>2009-04-06T12:48:36Z</time>
      </trkpt>
      <trkpt lat="43.66733" lon="6.98457">
        <ele>248.6</ele>
        <time>2009-04-06T12:48:40Z</time>
      </trkpt>
      <trkpt lat="43.66703" lon="6.98459">
        <ele>248.6</ele>
        <time>2009-04-06T12:48:44Z</time>
      </trkpt>
      <trkpt lat="43.66675" lon="6.9847">
        <ele>248.2</ele>
        <time>2009-04-06T12:48:48Z</time>
      </trkpt>
      <trkpt lat="43.66648" lon="6.98485">
        <ele>246.7</ele>
        <time>2009-04-06T12:48:52Z</time>
      </trkpt>
      <trkpt lat="43.66619" lon="6.98503">
        <ele>245.8</ele>
        <time>2009-04-06T12:48:56Z</time>
      </trkpt>
      <trkpt lat="43.66591" lon="6.9852">
        <ele>244.8</ele>
        <time>2009-04-06T12:49:00Z</time>
      </trkpt>
      <trkpt lat="43.66562" lon="6.98535">
        <ele>243.4</ele>
        <time>2009-04-06T12:49:04Z</time>
      </trkpt>
      <trkpt lat="43.66535" lon="6.98554">
        <ele>242.4</ele>
        <time>2009-04-06T12:49:08Z</time>
      </trkpt>
      <trkpt lat="43.66508" lon="6.98575">
        <ele>241.4</ele>
        <time>2009-04-06T12:49:12Z</time>
      </trkpt>
      <trkpt lat="43.66481" lon="6.98594">
        <ele>240.5</ele>
        <time>2009-04-06T12:49:16Z</time>
      </trkpt>
      <trkpt lat="43.66453" lon="6.98612">
        <ele>240.9</ele>
        <time>2009-04-06T12:49:20Z</time>
      </trkpt>
      <trkpt lat="43.66425" lon="6.98626">
        <ele>240.5</ele>
        <time>2009-04-06T12:49:24Z</time>
      </trkpt>
      <trkpt lat="43.66396" lon="6.98635">
        <ele>240.5</ele>
        <time>2009-04-06T12:49:28Z</time>
      </trkpt>
      <trkpt lat="43.66369" lon="6.98644">
        <ele>240.9</ele>
        <time>2009-04-06T12:49:32Z</time>
      </trkpt>
      <trkpt lat="43.66344" lon="6.98657">
        <ele>240.5</ele>
        <time>2009-04-06T12:49:36Z</time>
      </trkpt>
      <trkpt lat="43.66314" lon="6.98678">
        <ele>241.4</ele>
        <time>2009-04-06T12:49:41Z</time>
      </trkpt>
      <trkpt lat="43.66285" lon="6.98699">
        <ele>243.4</ele>
        <time>2009-04-06T12:49:46Z</time>
      </trkpt>
      <trkpt lat="43.66254" lon="6.98715">
        <ele>243.8</ele>
        <time>2009-04-06T12:49:51Z</time>
      </trkpt>
      <trkpt lat="43.66224" lon="6.98725">
        <ele>243.4</ele>
        <time>2009-04-06T12:49:56Z</time>
      </trkpt>
      <trkpt lat="43.66194" lon="6.98734">
        <ele>242.9</ele>
        <time>2009-04-06T12:50:01Z</time>
      </trkpt>
      <trkpt lat="43.66166" lon="6.98743">
        <ele>242.9</ele>
        <time>2009-04-06T12:50:06Z</time>
      </trkpt>
      <trkpt lat="43.66137" lon="6.98756">
        <ele>245.3</ele>
        <time>2009-04-06T12:50:12Z</time>
      </trkpt>
      <trkpt lat="43.66113" lon="6.98785">
        <ele>245.3</ele>
        <time>2009-04-06T12:50:19Z</time>
      </trkpt>
      <trkpt lat="43.66097" lon="6.98824">
        <ele>243.8</ele>
        <time>2009-04-06T12:50:25Z</time>
      </trkpt>
      <trkpt lat="43.66089" lon="6.98862">
        <ele>241.9</ele>
        <time>2009-04-06T12:50:30Z</time>
      </trkpt>
      <trkpt lat="43.6608" lon="6.98902">
        <ele>240</ele>
        <time>2009-04-06T12:50:35Z</time>
      </trkpt>
      <trkpt lat="43.66071" lon="6.98943">
        <ele>238.1</ele>
        <time>2009-04-06T12:50:40Z</time>
      </trkpt>
      <trkpt lat="43.66061" lon="6.98986">
        <ele>237.6</ele>
        <time>2009-04-06T12:50:45Z</time>
      </trkpt>
      <trkpt lat="43.66046" lon="6.99025">
        <ele>236.1</ele>
        <time>2009-04-06T12:50:50Z</time>
      </trkpt>
      <trkpt lat="43.66033" lon="6.9906">
        <ele>236.1</ele>
        <time>2009-04-06T12:50:54Z</time>
      </trkpt>
      <trkpt lat="43.66019" lon="6.99093">
        <ele>235.7</ele>
        <time>2009-04-06T12:50:58Z</time>
      </trkpt>
      <trkpt lat="43.66001" lon="6.99124">
        <ele>235.7</ele>
        <time>2009-04-06T12:51:02Z</time>
      </trkpt>
      <trkpt lat="43.65981" lon="6.99152">
        <ele>236.1</ele>
        <time>2009-04-06T12:51:06Z</time>
      </trkpt>
      <trkpt lat="43.65962" lon="6.99183">
        <ele>238.1</ele>
        <time>2009-04-06T12:51:10Z</time>
      </trkpt>
      <trkpt lat="43.6594" lon="6.99213">
        <ele>237.6</ele>
        <time>2009-04-06T12:51:14Z</time>
      </trkpt>
      <trkpt lat="43.65918" lon="6.99242">
        <ele>235.2</ele>
        <time>2009-04-06T12:51:18Z</time>
      </trkpt>
      <trkpt lat="43.65897" lon="6.9927">
        <ele>234.2</ele>
        <time>2009-04-06T12:51:22Z</time>
      </trkpt>
      <trkpt lat="43.65878" lon="6.99302">
        <ele>237.1</ele>
        <time>2009-04-06T12:51:26Z</time>
      </trkpt>
      <trkpt lat="43.65863" lon="6.99338">
        <ele>235.7</ele>
        <time>2009-04-06T12:51:30Z</time>
      </trkpt>
      <trkpt lat="43.65852" lon="6.99375">
        <ele>232.3</ele>
        <time>2009-04-06T12:51:34Z</time>
      </trkpt>
      <trkpt lat="43.65844" lon="6.99414">
        <ele>230.9</ele>
        <time>2009-04-06T12:51:38Z</time>
      </trkpt>
      <trkpt lat="43.65837" lon="6.99452">
        <ele>230.9</ele>
        <time>2009-04-06T12:51:42Z</time>
      </trkpt>
      <trkpt lat="43.65829" lon="6.99488">
        <ele>229.9</ele>
        <time>2009-04-06T12:51:46Z</time>
      </trkpt>
      <trkpt lat="43.65819" lon="6.99527">
        <ele>230.4</ele>
        <time>2009-04-06T12:51:51Z</time>
      </trkpt>
      <trkpt lat="43.65811" lon="6.99562">
        <ele>231.3</ele>
        <time>2009-04-06T12:51:56Z</time>
      </trkpt>
      <trkpt lat="43.65808" lon="6.99599">
        <ele>232.3</ele>
        <time>2009-04-06T12:52:01Z</time>
      </trkpt>
      <trkpt lat="43.65792" lon="6.99631">
        <ele>233.3</ele>
        <time>2009-04-06T12:52:10Z</time>
      </trkpt>
      <trkpt lat="43.65775" lon="6.99664">
        <ele>241.4</ele>
        <time>2009-04-06T12:52:27Z</time>
      </trkpt>
      <trkpt lat="43.65761" lon="6.99698">
        <ele>244.3</ele>
        <time>2009-04-06T12:52:40Z</time>
      </trkpt>
      <trkpt lat="43.65747" lon="6.99733">
        <ele>246.7</ele>
        <time>2009-04-06T12:52:52Z</time>
      </trkpt>
      <trkpt lat="43.65733" lon="6.99773">
        <ele>248.2</ele>
        <time>2009-04-06T12:53:05Z</time>
      </trkpt>
      <trkpt lat="43.65717" lon="6.99806">
        <ele>251</ele>
        <time>2009-04-06T12:53:17Z</time>
      </trkpt>
      <trkpt lat="43.65702" lon="6.9984">
        <ele>254.9</ele>
        <time>2009-04-06T12:53:29Z</time>
      </trkpt>
      <trkpt lat="43.65685" lon="6.99874">
        <ele>258.3</ele>
        <time>2009-04-06T12:53:42Z</time>
      </trkpt>
      <trkpt lat="43.65668" lon="6.9991">
        <ele>263.1</ele>
        <time>2009-04-06T12:53:55Z</time>
      </trkpt>
      <trkpt lat="43.6566" lon="6.99949">
        <ele>264</ele>
        <time>2009-04-06T12:54:09Z</time>
      </trkpt>
      <trkpt lat="43.65653" lon="6.99994">
        <ele>264</ele>
        <time>2009-04-06T12:54:22Z</time>
      </trkpt>
      <trkpt lat="43.65639" lon="7.00028">
        <ele>265</ele>
        <time>2009-04-06T12:54:31Z</time>
      </trkpt>
      <trkpt lat="43.65621" lon="7.0006">
        <ele>268.3</ele>
        <time>2009-04-06T12:54:40Z</time>
      </trkpt>
      <trkpt lat="43.65602" lon="7.00093">
        <ele>275.1</ele>
        <time>2009-04-06T12:54:51Z</time>
      </trkpt>
      <trkpt lat="43.65582" lon="7.00131">
        <ele>282.3</ele>
        <time>2009-04-06T12:55:02Z</time>
      </trkpt>
      <trkpt lat="43.65559" lon="7.00161">
        <ele>281.8</ele>
        <time>2009-04-06T12:55:13Z</time>
      </trkpt>
      <trkpt lat="43.65536" lon="7.00189">
        <ele>282.3</ele>
        <time>2009-04-06T12:55:24Z</time>
      </trkpt>
      <trkpt lat="43.65509" lon="7.00196">
        <ele>280.8</ele>
        <time>2009-04-06T12:55:36Z</time>
      </trkpt>
      <trkpt lat="43.65483" lon="7.00201">
        <ele>278</ele>
        <time>2009-04-06T12:55:44Z</time>
      </trkpt>
      <trkpt lat="43.65453" lon="7.00202">
        <ele>274.6</ele>
        <time>2009-04-06T12:55:51Z</time>
      </trkpt>
      <trkpt lat="43.65426" lon="7.00215">
        <ele>274.1</ele>
        <time>2009-04-06T12:55:58Z</time>
      </trkpt>
      <trkpt lat="43.654" lon="7.00235">
        <ele>274.6</ele>
        <time>2009-04-06T12:56:05Z</time>
      </trkpt>
      <trkpt lat="43.65376" lon="7.00256">
        <ele>274.6</ele>
        <time>2009-04-06T12:56:14Z</time>
      </trkpt>
      <trkpt lat="43.65353" lon="7.00277">
        <ele>275.1</ele>
        <time>2009-04-06T12:56:22Z</time>
      </trkpt>
      <trkpt lat="43.65329" lon="7.003">
        <ele>275.6</ele>
        <time>2009-04-06T12:56:30Z</time>
      </trkpt>
      <trkpt lat="43.65296" lon="7.00323">
        <ele>275.6</ele>
        <time>2009-04-06T12:56:39Z</time>
      </trkpt>
      <trkpt lat="43.65268" lon="7.00345">
        <ele>277</ele>
        <time>2009-04-06T12:56:48Z</time>
      </trkpt>
      <trkpt lat="43.6524" lon="7.00363">
        <ele>276.5</ele>
        <time>2009-04-06T12:56:54Z</time>
      </trkpt>
      <trkpt lat="43.6521" lon="7.00377">
        <ele>274.1</ele>
        <time>2009-04-06T12:57:00Z</time>
      </trkpt>
      <trkpt lat="43.65184" lon="7.00388">
        <ele>272.2</ele>
        <time>2009-04-06T12:57:05Z</time>
      </trkpt>
      <trkpt lat="43.65155" lon="7.00404">
        <ele>271.2</ele>
        <time>2009-04-06T12:57:10Z</time>
      </trkpt>
      <trkpt lat="43.65125" lon="7.00425">
        <ele>268.3</ele>
        <time>2009-04-06T12:57:15Z</time>
      </trkpt>
      <trkpt lat="43.65102" lon="7.00456">
        <ele>266.4</ele>
        <time>2009-04-06T12:57:19Z</time>
      </trkpt>
      <trkpt lat="43.65078" lon="7.00487">
        <ele>263.5</ele>
        <time>2009-04-06T12:57:23Z</time>
      </trkpt>
      <trkpt lat="43.65051" lon="7.00517">
        <ele>261.6</ele>
        <time>2009-04-06T12:57:27Z</time>
      </trkpt>
      <trkpt lat="43.65029" lon="7.00549">
        <ele>257.8</ele>
        <time>2009-04-06T12:57:31Z</time>
      </trkpt>
      <trkpt lat="43.65013" lon="7.00581">
        <ele>255.8</ele>
        <time>2009-04-06T12:57:35Z</time>
      </trkpt>
      <trkpt lat="43.64995" lon="7.00616">
        <ele>253.9</ele>
        <time>2009-04-06T12:57:40Z</time>
      </trkpt>
      <trkpt lat="43.64977" lon="7.00653">
        <ele>253</ele>
        <time>2009-04-06T12:57:45Z</time>
      </trkpt>
      <trkpt lat="43.64957" lon="7.00687">
        <ele>253</ele>
        <time>2009-04-06T12:57:50Z</time>
      </trkpt>
      <trkpt lat="43.64939" lon="7.00716">
        <ele>253.4</ele>
        <time>2009-04-06T12:57:55Z</time>
      </trkpt>
      <trkpt lat="43.64918" lon="7.00748">
        <ele>255.4</ele>
        <time>2009-04-06T12:58:02Z</time>
      </trkpt>
      <trkpt lat="43.64901" lon="7.00778">
        <ele>258.3</ele>
        <time>2009-04-06T12:58:09Z</time>
      </trkpt>
      <trkpt lat="43.64882" lon="7.00811">
        <ele>259.2</ele>
        <time>2009-04-06T12:58:16Z</time>
      </trkpt>
      <trkpt lat="43.64861" lon="7.00839">
        <ele>259.7</ele>
        <time>2009-04-06T12:58:22Z</time>
      </trkpt>
      <trkpt lat="43.64837" lon="7.00869">
        <ele>260.2</ele>
        <time>2009-04-06T12:58:28Z</time>
      </trkpt>
      <trkpt lat="43.64812" lon="7.00892">
        <ele>261.6</ele>
        <time>2009-04-06T12:58:34Z</time>
      </trkpt>
      <trkpt lat="43.64782" lon="7.00878">
        <ele>260.7</ele>
        <time>2009-04-06T12:58:42Z</time>
      </trkpt>
      <trkpt lat="43.64756" lon="7.00852">
        <ele>259.7</ele>
        <time>2009-04-06T12:58:47Z</time>
      </trkpt>
      <trkpt lat="43.64731" lon="7.00815">
        <ele>256.3</ele>
        <time>2009-04-06T12:58:51Z</time>
      </trkpt>
      <trkpt lat="43.64711" lon="7.00781">
        <ele>251.5</ele>
        <time>2009-04-06T12:58:54Z</time>
      </trkpt>
      <trkpt lat="43.64691" lon="7.00755">
        <ele>248.2</ele>
        <time>2009-04-06T12:58:57Z</time>
      </trkpt>
      <trkpt lat="43.64662" lon="7.00737">
        <ele>244.3</ele>
        <time>2009-04-06T12:59:00Z</time>
      </trkpt>
      <trkpt lat="43.6463" lon="7.00722">
        <ele>238.1</ele>
        <time>2009-04-06T12:59:03Z</time>
      </trkpt>
      <trkpt lat="43.64598" lon="7.00715">
        <ele>233.3</ele>
        <time>2009-04-06T12:59:06Z</time>
      </trkpt>
      <trkpt lat="43.64569" lon="7.00716">
        <ele>228.9</ele>
        <time>2009-04-06T12:59:10Z</time>
      </trkpt>
      <trkpt lat="43.64538" lon="7.00718">
        <ele>225.6</ele>
        <time>2009-04-06T12:59:22Z</time>
      </trkpt>
      <trkpt lat="43.64506" lon="7.00723">
        <ele>221.7</ele>
        <time>2009-04-06T12:59:28Z</time>
      </trkpt>
      <trkpt lat="43.64471" lon="7.00724">
        <ele>217.4</ele>
        <time>2009-04-06T12:59:33Z</time>
      </trkpt>
      <trkpt lat="43.64441" lon="7.0072">
        <ele>213.6</ele>
        <time>2009-04-06T12:59:37Z</time>
      </trkpt>
      <trkpt lat="43.64414" lon="7.00709">
        <ele>210.2</ele>
        <time>2009-04-06T12:59:41Z</time>
      </trkpt>
      <trkpt lat="43.64384" lon="7.00704">
        <ele>207.3</ele>
        <time>2009-04-06T12:59:45Z</time>
      </trkpt>
      <trkpt lat="43.64354" lon="7.00706">
        <ele>204.9</ele>
        <time>2009-04-06T12:59:49Z</time>
      </trkpt>
      <trkpt lat="43.64322" lon="7.00718">
        <ele>203.5</ele>
        <time>2009-04-06T12:59:53Z</time>
      </trkpt>
      <trkpt lat="43.64289" lon="7.00723">
        <ele>200.6</ele>
        <time>2009-04-06T12:59:57Z</time>
      </trkpt>
      <trkpt lat="43.64259" lon="7.00726">
        <ele>200.1</ele>
        <time>2009-04-06T13:00:02Z</time>
      </trkpt>
      <trkpt lat="43.64241" lon="7.00756">
        <ele>199.6</ele>
        <time>2009-04-06T13:01:09Z</time>
      </trkpt>
      <trkpt lat="43.64216" lon="7.00777">
        <ele>198.6</ele>
        <time>2009-04-06T13:01:17Z</time>
      </trkpt>
      <trkpt lat="43.6421" lon="7.00814">
        <ele>199.6</ele>
        <time>2009-04-06T13:01:29Z</time>
      </trkpt>
      <trkpt lat="43.64201" lon="7.0085">
        <ele>198.6</ele>
        <time>2009-04-06T13:01:42Z</time>
      </trkpt>
      <trkpt lat="43.64167" lon="7.0085">
        <ele>198.6</ele>
        <time>2009-04-06T13:01:54Z</time>
      </trkpt>
      <trkpt lat="43.64136" lon="7.00832">
        <ele>196.7</ele>
        <time>2009-04-06T13:02:04Z</time>
      </trkpt>
      <trkpt lat="43.64134" lon="7.00837">
        <ele>196.2</ele>
        <time>2009-04-06T13:04:27Z</time>
      </trkpt>
    </trkseg>
  </trk>
</gpx>